<?xml version="1.0" encoding="UTF-8" standalone="no" ?>
<gpx xmlns="http://www.topografix.com/GPX/1/1" xmlns:xsi="http://www.w3.org/2001/XMLSchema-instance" xsi:schemaLocation="http://www.topografix.com/GPX/1/1 http://www.topografix.com/GPX/1/1/gpx.xsd" version="1.1" creator="VisuGPX - https://www.visugpx.com">
  <metadata>
    <name>superb_ravy</name>
  </metadata>
  <trk>
    <name><![CDATA[Sortie à vélo dans l'après-midi]]></name>
    <trkseg>
      <trkpt lat="42.76757" lon="0.57702">
        <ele>1794</ele>
        <time>1970-01-01T00:00:00.000Z</time>
      </trkpt>
      <trkpt lat="42.76759" lon="0.57703">
        <ele>1794</ele>
        <time>1970-01-01T00:00:01.000Z</time>
      </trkpt>
      <trkpt lat="42.76759" lon="0.57702">
        <ele>1794</ele>
        <time>1970-01-01T00:00:03.000Z</time>
      </trkpt>
      <trkpt lat="42.76759" lon="0.57702">
        <ele>1794.2</ele>
        <time>1970-01-01T00:00:04.000Z</time>
      </trkpt>
      <trkpt lat="42.76759" lon="0.57702">
        <ele>1794.2</ele>
        <time>1970-01-01T00:00:06.000Z</time>
      </trkpt>
      <trkpt lat="42.7676" lon="0.57701">
        <ele>1794.2</ele>
        <time>1970-01-01T00:00:07.000Z</time>
      </trkpt>
      <trkpt lat="42.7676" lon="0.57701">
        <ele>1794.2</ele>
        <time>1970-01-01T00:00:09.000Z</time>
      </trkpt>
      <trkpt lat="42.7676" lon="0.57701">
        <ele>1794.2</ele>
        <time>1970-01-01T00:00:10.000Z</time>
      </trkpt>
      <trkpt lat="42.7676" lon="0.57701">
        <ele>1794.2</ele>
        <time>1970-01-01T00:00:12.000Z</time>
      </trkpt>
      <trkpt lat="42.76761" lon="0.577">
        <ele>1794.2</ele>
        <time>1970-01-01T00:00:13.000Z</time>
      </trkpt>
      <trkpt lat="42.7676" lon="0.57701">
        <ele>1794.2</ele>
        <time>1970-01-01T00:00:15.000Z</time>
      </trkpt>
      <trkpt lat="42.76761" lon="0.57699">
        <ele>1794.1</ele>
        <time>1970-01-01T00:00:17.000Z</time>
      </trkpt>
      <trkpt lat="42.76762" lon="0.57697">
        <ele>1794.2</ele>
        <time>1970-01-01T00:00:18.000Z</time>
      </trkpt>
      <trkpt lat="42.76758" lon="0.57693">
        <ele>1793.8</ele>
        <time>1970-01-01T00:00:20.000Z</time>
      </trkpt>
      <trkpt lat="42.76756" lon="0.5769">
        <ele>1793.5</ele>
        <time>1970-01-01T00:00:21.000Z</time>
      </trkpt>
      <trkpt lat="42.76742" lon="0.5768">
        <ele>1792.4</ele>
        <time>1970-01-01T00:00:23.000Z</time>
      </trkpt>
      <trkpt lat="42.76735" lon="0.57674">
        <ele>1791.6</ele>
        <time>1970-01-01T00:00:24.000Z</time>
      </trkpt>
      <trkpt lat="42.76729" lon="0.57667">
        <ele>1790.8</ele>
        <time>1970-01-01T00:00:25.000Z</time>
      </trkpt>
      <trkpt lat="42.76724" lon="0.5765">
        <ele>1789.1</ele>
        <time>1970-01-01T00:00:27.000Z</time>
      </trkpt>
      <trkpt lat="42.76722" lon="0.57641">
        <ele>1788.4</ele>
        <time>1970-01-01T00:00:28.000Z</time>
      </trkpt>
      <trkpt lat="42.76715" lon="0.57623">
        <ele>1786.5</ele>
        <time>1970-01-01T00:00:30.000Z</time>
      </trkpt>
      <trkpt lat="42.7671" lon="0.57618">
        <ele>1785</ele>
        <time>1970-01-01T00:00:31.000Z</time>
      </trkpt>
      <trkpt lat="42.76703" lon="0.57617">
        <ele>1784.3</ele>
        <time>1970-01-01T00:00:32.000Z</time>
      </trkpt>
      <trkpt lat="42.76693" lon="0.57625">
        <ele>1784</ele>
        <time>1970-01-01T00:00:34.000Z</time>
      </trkpt>
      <trkpt lat="42.76691" lon="0.57629">
        <ele>1784</ele>
        <time>1970-01-01T00:00:35.000Z</time>
      </trkpt>
      <trkpt lat="42.76691" lon="0.57631">
        <ele>1783.9</ele>
        <time>1970-01-01T00:00:36.000Z</time>
      </trkpt>
      <trkpt lat="42.76692" lon="0.57633">
        <ele>1783.9</ele>
        <time>1970-01-01T00:00:38.000Z</time>
      </trkpt>
      <trkpt lat="42.76694" lon="0.57631">
        <ele>1783.9</ele>
        <time>1970-01-01T00:00:39.000Z</time>
      </trkpt>
      <trkpt lat="42.76694" lon="0.5763">
        <ele>1783.8</ele>
        <time>1970-01-01T00:00:40.000Z</time>
      </trkpt>
      <trkpt lat="42.76694" lon="0.57632">
        <ele>1783.8</ele>
        <time>1970-01-01T00:00:41.000Z</time>
      </trkpt>
      <trkpt lat="42.76694" lon="0.57633">
        <ele>1783.8</ele>
        <time>1970-01-01T00:00:43.000Z</time>
      </trkpt>
      <trkpt lat="42.76694" lon="0.57635">
        <ele>1783.8</ele>
        <time>1970-01-01T00:00:44.000Z</time>
      </trkpt>
      <trkpt lat="42.76697" lon="0.57637">
        <ele>1783.7</ele>
        <time>1970-01-01T00:00:46.000Z</time>
      </trkpt>
      <trkpt lat="42.76698" lon="0.57635">
        <ele>1783.6</ele>
        <time>1970-01-01T00:00:47.000Z</time>
      </trkpt>
      <trkpt lat="42.76698" lon="0.57634">
        <ele>1783.6</ele>
        <time>1970-01-01T00:00:48.000Z</time>
      </trkpt>
      <trkpt lat="42.76699" lon="0.57633">
        <ele>1783.6</ele>
        <time>1970-01-01T00:00:50.000Z</time>
      </trkpt>
      <trkpt lat="42.76699" lon="0.57631">
        <ele>1783.6</ele>
        <time>1970-01-01T00:00:52.000Z</time>
      </trkpt>
      <trkpt lat="42.76699" lon="0.57631">
        <ele>1783.6</ele>
        <time>1970-01-01T00:00:53.000Z</time>
      </trkpt>
      <trkpt lat="42.76699" lon="0.5763">
        <ele>1783.5</ele>
        <time>1970-01-01T00:00:55.000Z</time>
      </trkpt>
      <trkpt lat="42.76699" lon="0.57629">
        <ele>1783.5</ele>
        <time>1970-01-01T00:00:56.000Z</time>
      </trkpt>
      <trkpt lat="42.76699" lon="0.57629">
        <ele>1783.5</ele>
        <time>1970-01-01T00:00:57.000Z</time>
      </trkpt>
      <trkpt lat="42.76699" lon="0.57628">
        <ele>1783.5</ele>
        <time>1970-01-01T00:00:59.000Z</time>
      </trkpt>
      <trkpt lat="42.76699" lon="0.57628">
        <ele>1783.5</ele>
        <time>1970-01-01T00:01:00.000Z</time>
      </trkpt>
      <trkpt lat="42.767" lon="0.57628">
        <ele>1783.5</ele>
        <time>1970-01-01T00:01:02.000Z</time>
      </trkpt>
      <trkpt lat="42.767" lon="0.57628">
        <ele>1783.5</ele>
        <time>1970-01-01T00:01:04.000Z</time>
      </trkpt>
      <trkpt lat="42.767" lon="0.57628">
        <ele>1783.5</ele>
        <time>1970-01-01T00:01:05.000Z</time>
      </trkpt>
      <trkpt lat="42.767" lon="0.57628">
        <ele>1783.5</ele>
        <time>1970-01-01T00:01:07.000Z</time>
      </trkpt>
      <trkpt lat="42.767" lon="0.57627">
        <ele>1783.5</ele>
        <time>1970-01-01T00:01:09.000Z</time>
      </trkpt>
      <trkpt lat="42.767" lon="0.57627">
        <ele>1783.5</ele>
        <time>1970-01-01T00:01:10.000Z</time>
      </trkpt>
      <trkpt lat="42.76697" lon="0.57638">
        <ele>1783.3</ele>
        <time>1970-01-01T00:01:12.000Z</time>
      </trkpt>
      <trkpt lat="42.76697" lon="0.57639">
        <ele>1783.3</ele>
        <time>1970-01-01T00:01:13.000Z</time>
      </trkpt>
      <trkpt lat="42.76697" lon="0.5764">
        <ele>1783.3</ele>
        <time>1970-01-01T00:01:14.000Z</time>
      </trkpt>
      <trkpt lat="42.76697" lon="0.5764">
        <ele>1783.2</ele>
        <time>1970-01-01T00:01:16.000Z</time>
      </trkpt>
      <trkpt lat="42.76697" lon="0.5764">
        <ele>1783.2</ele>
        <time>1970-01-01T00:01:18.000Z</time>
      </trkpt>
      <trkpt lat="42.76697" lon="0.5764">
        <ele>1783.2</ele>
        <time>1970-01-01T00:01:20.000Z</time>
      </trkpt>
      <trkpt lat="42.76698" lon="0.57642">
        <ele>1783.2</ele>
        <time>1970-01-01T00:02:26.000Z</time>
      </trkpt>
      <trkpt lat="42.76698" lon="0.57642">
        <ele>1783.2</ele>
        <time>1970-01-01T00:02:27.000Z</time>
      </trkpt>
      <trkpt lat="42.76698" lon="0.57642">
        <ele>1783.2</ele>
        <time>1970-01-01T00:02:28.000Z</time>
      </trkpt>
      <trkpt lat="42.76698" lon="0.57642">
        <ele>1783.2</ele>
        <time>1970-01-01T00:02:29.000Z</time>
      </trkpt>
      <trkpt lat="42.76698" lon="0.57642">
        <ele>1782.2</ele>
        <time>1970-01-01T00:02:31.000Z</time>
      </trkpt>
      <trkpt lat="42.76698" lon="0.57643">
        <ele>1782.1</ele>
        <time>1970-01-01T00:02:32.000Z</time>
      </trkpt>
      <trkpt lat="42.76697" lon="0.57644">
        <ele>1782</ele>
        <time>1970-01-01T00:02:34.000Z</time>
      </trkpt>
      <trkpt lat="42.76697" lon="0.57645">
        <ele>1782</ele>
        <time>1970-01-01T00:02:35.000Z</time>
      </trkpt>
      <trkpt lat="42.76696" lon="0.57645">
        <ele>1781.9</ele>
        <time>1970-01-01T00:02:37.000Z</time>
      </trkpt>
      <trkpt lat="42.76696" lon="0.57645">
        <ele>1781.8</ele>
        <time>1970-01-01T00:02:38.000Z</time>
      </trkpt>
      <trkpt lat="42.76697" lon="0.57645">
        <ele>1781.8</ele>
        <time>1970-01-01T00:02:40.000Z</time>
      </trkpt>
      <trkpt lat="42.76697" lon="0.57646">
        <ele>1781.7</ele>
        <time>1970-01-01T00:02:42.000Z</time>
      </trkpt>
      <trkpt lat="42.76697" lon="0.57646">
        <ele>1781.7</ele>
        <time>1970-01-01T00:02:43.000Z</time>
      </trkpt>
      <trkpt lat="42.76697" lon="0.57648">
        <ele>1781.6</ele>
        <time>1970-01-01T00:02:45.000Z</time>
      </trkpt>
      <trkpt lat="42.76696" lon="0.57649">
        <ele>1781.4</ele>
        <time>1970-01-01T00:02:46.000Z</time>
      </trkpt>
      <trkpt lat="42.76693" lon="0.57653">
        <ele>1781.1</ele>
        <time>1970-01-01T00:02:47.000Z</time>
      </trkpt>
      <trkpt lat="42.76692" lon="0.57656">
        <ele>1780.8</ele>
        <time>1970-01-01T00:02:48.000Z</time>
      </trkpt>
      <trkpt lat="42.7669" lon="0.57659">
        <ele>1780.6</ele>
        <time>1970-01-01T00:02:49.000Z</time>
      </trkpt>
      <trkpt lat="42.76688" lon="0.57662">
        <ele>1780.3</ele>
        <time>1970-01-01T00:02:50.000Z</time>
      </trkpt>
      <trkpt lat="42.76687" lon="0.57665">
        <ele>1780</ele>
        <time>1970-01-01T00:02:52.000Z</time>
      </trkpt>
      <trkpt lat="42.76685" lon="0.57668">
        <ele>1779.7</ele>
        <time>1970-01-01T00:02:54.000Z</time>
      </trkpt>
      <trkpt lat="42.76683" lon="0.57671">
        <ele>1779.5</ele>
        <time>1970-01-01T00:02:55.000Z</time>
      </trkpt>
      <trkpt lat="42.76682" lon="0.57674">
        <ele>1779.2</ele>
        <time>1970-01-01T00:02:57.000Z</time>
      </trkpt>
      <trkpt lat="42.7668" lon="0.57677">
        <ele>1778.8</ele>
        <time>1970-01-01T00:02:58.000Z</time>
      </trkpt>
      <trkpt lat="42.76679" lon="0.5768">
        <ele>1778.5</ele>
        <time>1970-01-01T00:02:59.000Z</time>
      </trkpt>
      <trkpt lat="42.76677" lon="0.57683">
        <ele>1778.2</ele>
        <time>1970-01-01T00:07:37.000Z</time>
      </trkpt>
      <trkpt lat="42.76675" lon="0.57686">
        <ele>1777.8</ele>
        <time>1970-01-01T00:07:38.000Z</time>
      </trkpt>
      <trkpt lat="42.76666" lon="0.57695">
        <ele>1776.5</ele>
        <time>1970-01-01T00:07:39.000Z</time>
      </trkpt>
      <trkpt lat="42.76655" lon="0.57704">
        <ele>1775</ele>
        <time>1970-01-01T00:07:40.000Z</time>
      </trkpt>
      <trkpt lat="42.76634" lon="0.57725">
        <ele>1771.1</ele>
        <time>1970-01-01T00:07:42.000Z</time>
      </trkpt>
      <trkpt lat="42.76622" lon="0.57735">
        <ele>1768.9</ele>
        <time>1970-01-01T00:07:43.000Z</time>
      </trkpt>
      <trkpt lat="42.7661" lon="0.57742">
        <ele>1766.7</ele>
        <time>1970-01-01T00:07:44.000Z</time>
      </trkpt>
      <trkpt lat="42.76598" lon="0.57748">
        <ele>1764.6</ele>
        <time>1970-01-01T00:07:45.000Z</time>
      </trkpt>
      <trkpt lat="42.76573" lon="0.5776">
        <ele>1760.9</ele>
        <time>1970-01-01T00:07:47.000Z</time>
      </trkpt>
      <trkpt lat="42.76549" lon="0.57772">
        <ele>1757.5</ele>
        <time>1970-01-01T00:07:49.000Z</time>
      </trkpt>
      <trkpt lat="42.76536" lon="0.57778">
        <ele>1755.7</ele>
        <time>1970-01-01T00:07:50.000Z</time>
      </trkpt>
      <trkpt lat="42.76511" lon="0.57791">
        <ele>1752.9</ele>
        <time>1970-01-01T00:07:52.000Z</time>
      </trkpt>
      <trkpt lat="42.76499" lon="0.57798">
        <ele>1751.4</ele>
        <time>1970-01-01T00:07:53.000Z</time>
      </trkpt>
      <trkpt lat="42.76487" lon="0.57806">
        <ele>1749.8</ele>
        <time>1970-01-01T00:07:54.000Z</time>
      </trkpt>
      <trkpt lat="42.76465" lon="0.57825">
        <ele>1746.8</ele>
        <time>1970-01-01T00:07:56.000Z</time>
      </trkpt>
      <trkpt lat="42.76443" lon="0.57846">
        <ele>1743.1</ele>
        <time>1970-01-01T00:07:58.000Z</time>
      </trkpt>
      <trkpt lat="42.76432" lon="0.57857">
        <ele>1741.5</ele>
        <time>1970-01-01T00:07:59.000Z</time>
      </trkpt>
      <trkpt lat="42.76421" lon="0.57868">
        <ele>1739.9</ele>
        <time>1970-01-01T00:08:00.000Z</time>
      </trkpt>
      <trkpt lat="42.7641" lon="0.57879">
        <ele>1738.1</ele>
        <time>1970-01-01T00:08:01.000Z</time>
      </trkpt>
      <trkpt lat="42.76398" lon="0.57889">
        <ele>1736.3</ele>
        <time>1970-01-01T00:08:02.000Z</time>
      </trkpt>
      <trkpt lat="42.76374" lon="0.57906">
        <ele>1733.1</ele>
        <time>1970-01-01T00:08:04.000Z</time>
      </trkpt>
      <trkpt lat="42.76349" lon="0.57922">
        <ele>1730.2</ele>
        <time>1970-01-01T00:08:06.000Z</time>
      </trkpt>
      <trkpt lat="42.76328" lon="0.57945">
        <ele>1727.5</ele>
        <time>1970-01-01T00:08:08.000Z</time>
      </trkpt>
      <trkpt lat="42.76318" lon="0.57957">
        <ele>1726.3</ele>
        <time>1970-01-01T00:08:09.000Z</time>
      </trkpt>
      <trkpt lat="42.76308" lon="0.57968">
        <ele>1725</ele>
        <time>1970-01-01T00:08:10.000Z</time>
      </trkpt>
      <trkpt lat="42.76297" lon="0.57979">
        <ele>1723.5</ele>
        <time>1970-01-01T00:08:11.000Z</time>
      </trkpt>
      <trkpt lat="42.76278" lon="0.58005">
        <ele>1720.1</ele>
        <time>1970-01-01T00:08:13.000Z</time>
      </trkpt>
      <trkpt lat="42.76268" lon="0.5802">
        <ele>1718.3</ele>
        <time>1970-01-01T00:08:14.000Z</time>
      </trkpt>
      <trkpt lat="42.76248" lon="0.58048">
        <ele>1714.8</ele>
        <time>1970-01-01T00:08:16.000Z</time>
      </trkpt>
      <trkpt lat="42.76238" lon="0.58063">
        <ele>1713.1</ele>
        <time>1970-01-01T00:08:17.000Z</time>
      </trkpt>
      <trkpt lat="42.76229" lon="0.58079">
        <ele>1711.4</ele>
        <time>1970-01-01T00:08:18.000Z</time>
      </trkpt>
      <trkpt lat="42.76213" lon="0.58113">
        <ele>1707.8</ele>
        <time>1970-01-01T00:08:20.000Z</time>
      </trkpt>
      <trkpt lat="42.76198" lon="0.58149">
        <ele>1704.4</ele>
        <time>1970-01-01T00:08:22.000Z</time>
      </trkpt>
      <trkpt lat="42.76191" lon="0.58168">
        <ele>1702.8</ele>
        <time>1970-01-01T00:08:23.000Z</time>
      </trkpt>
      <trkpt lat="42.76177" lon="0.58205">
        <ele>1699.3</ele>
        <time>1970-01-01T00:08:25.000Z</time>
      </trkpt>
      <trkpt lat="42.76162" lon="0.58241">
        <ele>1696.3</ele>
        <time>1970-01-01T00:08:27.000Z</time>
      </trkpt>
      <trkpt lat="42.76154" lon="0.58257">
        <ele>1694.9</ele>
        <time>1970-01-01T00:08:28.000Z</time>
      </trkpt>
      <trkpt lat="42.76145" lon="0.58273">
        <ele>1693.8</ele>
        <time>1970-01-01T00:08:29.000Z</time>
      </trkpt>
      <trkpt lat="42.76136" lon="0.58288">
        <ele>1692.8</ele>
        <time>1970-01-01T00:08:30.000Z</time>
      </trkpt>
      <trkpt lat="42.7612" lon="0.58318">
        <ele>1690.8</ele>
        <time>1970-01-01T00:08:32.000Z</time>
      </trkpt>
      <trkpt lat="42.76112" lon="0.58333">
        <ele>1689.6</ele>
        <time>1970-01-01T00:08:33.000Z</time>
      </trkpt>
      <trkpt lat="42.76106" lon="0.58346">
        <ele>1688.6</ele>
        <time>1970-01-01T00:08:34.000Z</time>
      </trkpt>
      <trkpt lat="42.76102" lon="0.58358">
        <ele>1687.9</ele>
        <time>1970-01-01T00:08:35.000Z</time>
      </trkpt>
      <trkpt lat="42.76104" lon="0.58367">
        <ele>1687.3</ele>
        <time>1970-01-01T00:08:37.000Z</time>
      </trkpt>
      <trkpt lat="42.76107" lon="0.58367">
        <ele>1687.1</ele>
        <time>1970-01-01T00:08:38.000Z</time>
      </trkpt>
      <trkpt lat="42.76115" lon="0.58366">
        <ele>1686.6</ele>
        <time>1970-01-01T00:08:40.000Z</time>
      </trkpt>
      <trkpt lat="42.76119" lon="0.58367">
        <ele>1686.3</ele>
        <time>1970-01-01T00:08:41.000Z</time>
      </trkpt>
      <trkpt lat="42.76122" lon="0.5837">
        <ele>1685.9</ele>
        <time>1970-01-01T00:08:42.000Z</time>
      </trkpt>
      <trkpt lat="42.76124" lon="0.58377">
        <ele>1685.4</ele>
        <time>1970-01-01T00:08:43.000Z</time>
      </trkpt>
      <trkpt lat="42.76124" lon="0.5838">
        <ele>1685.2</ele>
        <time>1970-01-01T00:08:44.000Z</time>
      </trkpt>
      <trkpt lat="42.76125" lon="0.58393">
        <ele>1684.2</ele>
        <time>1970-01-01T00:08:46.000Z</time>
      </trkpt>
      <trkpt lat="42.76126" lon="0.58396">
        <ele>1683.9</ele>
        <time>1970-01-01T00:08:47.000Z</time>
      </trkpt>
      <trkpt lat="42.76126" lon="0.58403">
        <ele>1683.3</ele>
        <time>1970-01-01T00:08:49.000Z</time>
      </trkpt>
      <trkpt lat="42.76128" lon="0.58412">
        <ele>1682.4</ele>
        <time>1970-01-01T00:08:51.000Z</time>
      </trkpt>
      <trkpt lat="42.76132" lon="0.5842">
        <ele>1681.3</ele>
        <time>1970-01-01T00:08:52.000Z</time>
      </trkpt>
      <trkpt lat="42.76135" lon="0.5843">
        <ele>1680.2</ele>
        <time>1970-01-01T00:08:53.000Z</time>
      </trkpt>
      <trkpt lat="42.76138" lon="0.58442">
        <ele>1679.8</ele>
        <time>1970-01-01T00:08:54.000Z</time>
      </trkpt>
      <trkpt lat="42.7614" lon="0.5847">
        <ele>1678.1</ele>
        <time>1970-01-01T00:08:56.000Z</time>
      </trkpt>
      <trkpt lat="42.76142" lon="0.58503">
        <ele>1675.1</ele>
        <time>1970-01-01T00:08:58.000Z</time>
      </trkpt>
      <trkpt lat="42.76143" lon="0.58521">
        <ele>1673.5</ele>
        <time>1970-01-01T00:08:59.000Z</time>
      </trkpt>
      <trkpt lat="42.76142" lon="0.58557">
        <ele>1670.2</ele>
        <time>1970-01-01T00:09:01.000Z</time>
      </trkpt>
      <trkpt lat="42.76133" lon="0.58595">
        <ele>1666.8</ele>
        <time>1970-01-01T00:09:03.000Z</time>
      </trkpt>
      <trkpt lat="42.76124" lon="0.58613">
        <ele>1665.3</ele>
        <time>1970-01-01T00:09:04.000Z</time>
      </trkpt>
      <trkpt lat="42.76113" lon="0.58629">
        <ele>1664.4</ele>
        <time>1970-01-01T00:09:05.000Z</time>
      </trkpt>
      <trkpt lat="42.76101" lon="0.58642">
        <ele>1663.6</ele>
        <time>1970-01-01T00:09:06.000Z</time>
      </trkpt>
      <trkpt lat="42.76074" lon="0.58661">
        <ele>1663</ele>
        <time>1970-01-01T00:09:08.000Z</time>
      </trkpt>
      <trkpt lat="42.76062" lon="0.58668">
        <ele>1662.6</ele>
        <time>1970-01-01T00:09:09.000Z</time>
      </trkpt>
      <trkpt lat="42.76054" lon="0.58677">
        <ele>1662.2</ele>
        <time>1970-01-01T00:09:10.000Z</time>
      </trkpt>
      <trkpt lat="42.76049" lon="0.58687">
        <ele>1662.5</ele>
        <time>1970-01-01T00:09:11.000Z</time>
      </trkpt>
      <trkpt lat="42.76049" lon="0.58709">
        <ele>1662.8</ele>
        <time>1970-01-01T00:09:13.000Z</time>
      </trkpt>
      <trkpt lat="42.76055" lon="0.58718">
        <ele>1662.9</ele>
        <time>1970-01-01T00:09:14.000Z</time>
      </trkpt>
      <trkpt lat="42.76061" lon="0.58726">
        <ele>1663.1</ele>
        <time>1970-01-01T00:09:15.000Z</time>
      </trkpt>
      <trkpt lat="42.76066" lon="0.58734">
        <ele>1663</ele>
        <time>1970-01-01T00:09:16.000Z</time>
      </trkpt>
      <trkpt lat="42.76071" lon="0.58749">
        <ele>1662.6</ele>
        <time>1970-01-01T00:09:18.000Z</time>
      </trkpt>
      <trkpt lat="42.76074" lon="0.58756">
        <ele>1662.2</ele>
        <time>1970-01-01T00:09:19.000Z</time>
      </trkpt>
      <trkpt lat="42.76076" lon="0.58763">
        <ele>1661.8</ele>
        <time>1970-01-01T00:09:20.000Z</time>
      </trkpt>
      <trkpt lat="42.76077" lon="0.58766">
        <ele>1661.6</ele>
        <time>1970-01-01T00:09:21.000Z</time>
      </trkpt>
      <trkpt lat="42.76078" lon="0.5878">
        <ele>1660.7</ele>
        <time>1970-01-01T00:09:23.000Z</time>
      </trkpt>
      <trkpt lat="42.76074" lon="0.58796">
        <ele>1659.7</ele>
        <time>1970-01-01T00:09:25.000Z</time>
      </trkpt>
      <trkpt lat="42.76068" lon="0.58802">
        <ele>1659.1</ele>
        <time>1970-01-01T00:09:26.000Z</time>
      </trkpt>
      <trkpt lat="42.76061" lon="0.58806">
        <ele>1658.7</ele>
        <time>1970-01-01T00:09:27.000Z</time>
      </trkpt>
      <trkpt lat="42.76046" lon="0.58812">
        <ele>1657.8</ele>
        <time>1970-01-01T00:09:29.000Z</time>
      </trkpt>
      <trkpt lat="42.76032" lon="0.58817">
        <ele>1656.9</ele>
        <time>1970-01-01T00:09:31.000Z</time>
      </trkpt>
      <trkpt lat="42.76025" lon="0.58821">
        <ele>1656.4</ele>
        <time>1970-01-01T00:09:32.000Z</time>
      </trkpt>
      <trkpt lat="42.76019" lon="0.58828">
        <ele>1655.8</ele>
        <time>1970-01-01T00:09:33.000Z</time>
      </trkpt>
      <trkpt lat="42.76013" lon="0.58835">
        <ele>1655.2</ele>
        <time>1970-01-01T00:09:34.000Z</time>
      </trkpt>
      <trkpt lat="42.76005" lon="0.58841">
        <ele>1654.4</ele>
        <time>1970-01-01T00:09:35.000Z</time>
      </trkpt>
      <trkpt lat="42.75986" lon="0.58846">
        <ele>1652.7</ele>
        <time>1970-01-01T00:09:37.000Z</time>
      </trkpt>
      <trkpt lat="42.75966" lon="0.58842">
        <ele>1651.4</ele>
        <time>1970-01-01T00:09:39.000Z</time>
      </trkpt>
      <trkpt lat="42.75945" lon="0.58842">
        <ele>1650.6</ele>
        <time>1970-01-01T00:09:41.000Z</time>
      </trkpt>
      <trkpt lat="42.75927" lon="0.58846">
        <ele>1650.2</ele>
        <time>1970-01-01T00:09:43.000Z</time>
      </trkpt>
      <trkpt lat="42.7592" lon="0.58847">
        <ele>1649.9</ele>
        <time>1970-01-01T00:09:44.000Z</time>
      </trkpt>
      <trkpt lat="42.75915" lon="0.58845">
        <ele>1649.6</ele>
        <time>1970-01-01T00:09:45.000Z</time>
      </trkpt>
      <trkpt lat="42.75915" lon="0.58847">
        <ele>1649.5</ele>
        <time>1970-01-01T00:09:47.000Z</time>
      </trkpt>
      <trkpt lat="42.75915" lon="0.58848">
        <ele>1649.5</ele>
        <time>1970-01-01T00:09:48.000Z</time>
      </trkpt>
      <trkpt lat="42.75916" lon="0.58856">
        <ele>1649.1</ele>
        <time>1970-01-01T00:09:50.000Z</time>
      </trkpt>
      <trkpt lat="42.75921" lon="0.58867">
        <ele>1648.6</ele>
        <time>1970-01-01T00:09:52.000Z</time>
      </trkpt>
      <trkpt lat="42.75926" lon="0.58868">
        <ele>1649.4</ele>
        <time>1970-01-01T00:09:53.000Z</time>
      </trkpt>
      <trkpt lat="42.75929" lon="0.58867">
        <ele>1649.6</ele>
        <time>1970-01-01T00:09:54.000Z</time>
      </trkpt>
      <trkpt lat="42.75932" lon="0.58867">
        <ele>1649.7</ele>
        <time>1970-01-01T00:09:55.000Z</time>
      </trkpt>
      <trkpt lat="42.75935" lon="0.58866">
        <ele>1649.9</ele>
        <time>1970-01-01T00:09:57.000Z</time>
      </trkpt>
      <trkpt lat="42.75938" lon="0.58866">
        <ele>1650</ele>
        <time>1970-01-01T00:09:59.000Z</time>
      </trkpt>
      <trkpt lat="42.75941" lon="0.58865">
        <ele>1650.1</ele>
        <time>1970-01-01T00:10:01.000Z</time>
      </trkpt>
      <trkpt lat="42.75944" lon="0.58864">
        <ele>1650.2</ele>
        <time>1970-01-01T00:10:02.000Z</time>
      </trkpt>
      <trkpt lat="42.75956" lon="0.58866">
        <ele>1650.6</ele>
        <time>1970-01-01T00:10:04.000Z</time>
      </trkpt>
      <trkpt lat="42.75969" lon="0.58868">
        <ele>1649.4</ele>
        <time>1970-01-01T00:10:06.000Z</time>
      </trkpt>
      <trkpt lat="42.75983" lon="0.58877">
        <ele>1647</ele>
        <time>1970-01-01T00:10:08.000Z</time>
      </trkpt>
      <trkpt lat="42.75991" lon="0.58884">
        <ele>1645.8</ele>
        <time>1970-01-01T00:10:09.000Z</time>
      </trkpt>
      <trkpt lat="42.75997" lon="0.58893">
        <ele>1644.5</ele>
        <time>1970-01-01T00:10:10.000Z</time>
      </trkpt>
      <trkpt lat="42.76003" lon="0.58899">
        <ele>1643.6</ele>
        <time>1970-01-01T00:10:11.000Z</time>
      </trkpt>
      <trkpt lat="42.76019" lon="0.58902">
        <ele>1642.2</ele>
        <time>1970-01-01T00:10:13.000Z</time>
      </trkpt>
      <trkpt lat="42.76035" lon="0.58894">
        <ele>1640.7</ele>
        <time>1970-01-01T00:10:15.000Z</time>
      </trkpt>
      <trkpt lat="42.76053" lon="0.58886">
        <ele>1638.9</ele>
        <time>1970-01-01T00:10:17.000Z</time>
      </trkpt>
      <trkpt lat="42.76071" lon="0.58883">
        <ele>1637.2</ele>
        <time>1970-01-01T00:10:19.000Z</time>
      </trkpt>
      <trkpt lat="42.7609" lon="0.58885">
        <ele>1635.7</ele>
        <time>1970-01-01T00:10:21.000Z</time>
      </trkpt>
      <trkpt lat="42.761" lon="0.5889">
        <ele>1634.7</ele>
        <time>1970-01-01T00:10:22.000Z</time>
      </trkpt>
      <trkpt lat="42.76117" lon="0.58906">
        <ele>1632.7</ele>
        <time>1970-01-01T00:10:24.000Z</time>
      </trkpt>
      <trkpt lat="42.76125" lon="0.58914">
        <ele>1631.7</ele>
        <time>1970-01-01T00:10:25.000Z</time>
      </trkpt>
      <trkpt lat="42.76132" lon="0.58923">
        <ele>1630.9</ele>
        <time>1970-01-01T00:10:26.000Z</time>
      </trkpt>
      <trkpt lat="42.76147" lon="0.58936">
        <ele>1629.3</ele>
        <time>1970-01-01T00:10:28.000Z</time>
      </trkpt>
      <trkpt lat="42.76155" lon="0.5894">
        <ele>1628.4</ele>
        <time>1970-01-01T00:10:29.000Z</time>
      </trkpt>
      <trkpt lat="42.76165" lon="0.58942">
        <ele>1627.5</ele>
        <time>1970-01-01T00:10:30.000Z</time>
      </trkpt>
      <trkpt lat="42.76186" lon="0.58944">
        <ele>1625.3</ele>
        <time>1970-01-01T00:10:32.000Z</time>
      </trkpt>
      <trkpt lat="42.76198" lon="0.58942">
        <ele>1624.3</ele>
        <time>1970-01-01T00:10:33.000Z</time>
      </trkpt>
      <trkpt lat="42.76208" lon="0.58936">
        <ele>1623.3</ele>
        <time>1970-01-01T00:10:34.000Z</time>
      </trkpt>
      <trkpt lat="42.76228" lon="0.58921">
        <ele>1621.3</ele>
        <time>1970-01-01T00:10:36.000Z</time>
      </trkpt>
      <trkpt lat="42.76237" lon="0.58915">
        <ele>1620.3</ele>
        <time>1970-01-01T00:10:37.000Z</time>
      </trkpt>
      <trkpt lat="42.76244" lon="0.58912">
        <ele>1619.5</ele>
        <time>1970-01-01T00:10:38.000Z</time>
      </trkpt>
      <trkpt lat="42.76246" lon="0.58916">
        <ele>1619.2</ele>
        <time>1970-01-01T00:10:39.000Z</time>
      </trkpt>
      <trkpt lat="42.76244" lon="0.58922">
        <ele>1618.6</ele>
        <time>1970-01-01T00:10:40.000Z</time>
      </trkpt>
      <trkpt lat="42.76229" lon="0.58942">
        <ele>1616.4</ele>
        <time>1970-01-01T00:10:42.000Z</time>
      </trkpt>
      <trkpt lat="42.7621" lon="0.58962">
        <ele>1614.3</ele>
        <time>1970-01-01T00:10:44.000Z</time>
      </trkpt>
      <trkpt lat="42.76203" lon="0.58971">
        <ele>1613.2</ele>
        <time>1970-01-01T00:10:45.000Z</time>
      </trkpt>
      <trkpt lat="42.76197" lon="0.58979">
        <ele>1612.3</ele>
        <time>1970-01-01T00:10:46.000Z</time>
      </trkpt>
      <trkpt lat="42.76199" lon="0.58981">
        <ele>1612.1</ele>
        <time>1970-01-01T00:10:47.000Z</time>
      </trkpt>
      <trkpt lat="42.76201" lon="0.5898">
        <ele>1611.8</ele>
        <time>1970-01-01T00:10:48.000Z</time>
      </trkpt>
      <trkpt lat="42.76219" lon="0.58972">
        <ele>1609.4</ele>
        <time>1970-01-01T00:10:50.000Z</time>
      </trkpt>
      <trkpt lat="42.76228" lon="0.58968">
        <ele>1608.2</ele>
        <time>1970-01-01T00:10:51.000Z</time>
      </trkpt>
      <trkpt lat="42.76237" lon="0.58967">
        <ele>1607.2</ele>
        <time>1970-01-01T00:10:52.000Z</time>
      </trkpt>
      <trkpt lat="42.76249" lon="0.58975">
        <ele>1605.6</ele>
        <time>1970-01-01T00:10:54.000Z</time>
      </trkpt>
      <trkpt lat="42.76244" lon="0.58991">
        <ele>1604.6</ele>
        <time>1970-01-01T00:10:56.000Z</time>
      </trkpt>
      <trkpt lat="42.76239" lon="0.58997">
        <ele>1604.1</ele>
        <time>1970-01-01T00:10:57.000Z</time>
      </trkpt>
      <trkpt lat="42.76234" lon="0.59002">
        <ele>1603.6</ele>
        <time>1970-01-01T00:10:58.000Z</time>
      </trkpt>
      <trkpt lat="42.76223" lon="0.59008">
        <ele>1602.1</ele>
        <time>1970-01-01T00:11:00.000Z</time>
      </trkpt>
      <trkpt lat="42.76215" lon="0.59008">
        <ele>1603.4</ele>
        <time>1970-01-01T00:11:02.000Z</time>
      </trkpt>
      <trkpt lat="42.76215" lon="0.5901">
        <ele>1602.1</ele>
        <time>1970-01-01T00:11:03.000Z</time>
      </trkpt>
      <trkpt lat="42.76216" lon="0.59012">
        <ele>1602.2</ele>
        <time>1970-01-01T00:11:04.000Z</time>
      </trkpt>
      <trkpt lat="42.76217" lon="0.59013">
        <ele>1600.6</ele>
        <time>1970-01-01T00:11:05.000Z</time>
      </trkpt>
      <trkpt lat="42.76221" lon="0.59015">
        <ele>1600.3</ele>
        <time>1970-01-01T00:11:06.000Z</time>
      </trkpt>
      <trkpt lat="42.76226" lon="0.59015">
        <ele>1599.9</ele>
        <time>1970-01-01T00:11:07.000Z</time>
      </trkpt>
      <trkpt lat="42.76239" lon="0.5901">
        <ele>1599.1</ele>
        <time>1970-01-01T00:11:09.000Z</time>
      </trkpt>
      <trkpt lat="42.76256" lon="0.59009">
        <ele>1597.1</ele>
        <time>1970-01-01T00:11:11.000Z</time>
      </trkpt>
      <trkpt lat="42.76273" lon="0.59008">
        <ele>1596.1</ele>
        <time>1970-01-01T00:11:13.000Z</time>
      </trkpt>
      <trkpt lat="42.76287" lon="0.59002">
        <ele>1593.8</ele>
        <time>1970-01-01T00:11:15.000Z</time>
      </trkpt>
      <trkpt lat="42.76292" lon="0.58999">
        <ele>1593.9</ele>
        <time>1970-01-01T00:11:16.000Z</time>
      </trkpt>
      <trkpt lat="42.76296" lon="0.59003">
        <ele>1592.7</ele>
        <time>1970-01-01T00:11:18.000Z</time>
      </trkpt>
      <trkpt lat="42.76292" lon="0.59009">
        <ele>1592</ele>
        <time>1970-01-01T00:11:19.000Z</time>
      </trkpt>
      <trkpt lat="42.76292" lon="0.59014">
        <ele>1591.2</ele>
        <time>1970-01-01T00:11:20.000Z</time>
      </trkpt>
      <trkpt lat="42.76277" lon="0.59033">
        <ele>1589</ele>
        <time>1970-01-01T00:11:22.000Z</time>
      </trkpt>
      <trkpt lat="42.76267" lon="0.59042">
        <ele>1588</ele>
        <time>1970-01-01T00:11:24.000Z</time>
      </trkpt>
      <trkpt lat="42.76266" lon="0.59044">
        <ele>1586.5</ele>
        <time>1970-01-01T00:11:25.000Z</time>
      </trkpt>
      <trkpt lat="42.76267" lon="0.59044">
        <ele>1586.5</ele>
        <time>1970-01-01T00:11:26.000Z</time>
      </trkpt>
      <trkpt lat="42.7627" lon="0.59045">
        <ele>1586.2</ele>
        <time>1970-01-01T00:11:28.000Z</time>
      </trkpt>
      <trkpt lat="42.7628" lon="0.59039">
        <ele>1586.3</ele>
        <time>1970-01-01T00:11:29.000Z</time>
      </trkpt>
      <trkpt lat="42.76298" lon="0.59031">
        <ele>1586.3</ele>
        <time>1970-01-01T00:11:31.000Z</time>
      </trkpt>
      <trkpt lat="42.76305" lon="0.59028">
        <ele>1585.7</ele>
        <time>1970-01-01T00:11:32.000Z</time>
      </trkpt>
      <trkpt lat="42.76312" lon="0.59023">
        <ele>1585.3</ele>
        <time>1970-01-01T00:11:33.000Z</time>
      </trkpt>
      <trkpt lat="42.76316" lon="0.59019">
        <ele>1585.1</ele>
        <time>1970-01-01T00:11:34.000Z</time>
      </trkpt>
      <trkpt lat="42.76317" lon="0.59017">
        <ele>1585.7</ele>
        <time>1970-01-01T00:11:35.000Z</time>
      </trkpt>
      <trkpt lat="42.76319" lon="0.59021">
        <ele>1584.4</ele>
        <time>1970-01-01T00:11:37.000Z</time>
      </trkpt>
      <trkpt lat="42.76321" lon="0.59023">
        <ele>1583.7</ele>
        <time>1970-01-01T00:11:38.000Z</time>
      </trkpt>
      <trkpt lat="42.76316" lon="0.59037">
        <ele>1581.5</ele>
        <time>1970-01-01T00:11:40.000Z</time>
      </trkpt>
      <trkpt lat="42.76315" lon="0.59044">
        <ele>1579.9</ele>
        <time>1970-01-01T00:11:41.000Z</time>
      </trkpt>
      <trkpt lat="42.76312" lon="0.59033">
        <ele>1583.6</ele>
        <time>1970-01-01T00:11:43.000Z</time>
      </trkpt>
      <trkpt lat="42.76311" lon="0.59038">
        <ele>1583</ele>
        <time>1970-01-01T00:11:44.000Z</time>
      </trkpt>
      <trkpt lat="42.7631" lon="0.59045">
        <ele>1580.4</ele>
        <time>1970-01-01T00:11:45.000Z</time>
      </trkpt>
      <trkpt lat="42.76309" lon="0.59052">
        <ele>1577.5</ele>
        <time>1970-01-01T00:11:46.000Z</time>
      </trkpt>
      <trkpt lat="42.76307" lon="0.59067">
        <ele>1573.6</ele>
        <time>1970-01-01T00:11:48.000Z</time>
      </trkpt>
      <trkpt lat="42.76307" lon="0.59071">
        <ele>1572.3</ele>
        <time>1970-01-01T00:11:49.000Z</time>
      </trkpt>
      <trkpt lat="42.76308" lon="0.59075">
        <ele>1570.9</ele>
        <time>1970-01-01T00:11:51.000Z</time>
      </trkpt>
      <trkpt lat="42.76309" lon="0.59079">
        <ele>1569.1</ele>
        <time>1970-01-01T00:11:52.000Z</time>
      </trkpt>
      <trkpt lat="42.76309" lon="0.5908">
        <ele>1569.1</ele>
        <time>1970-01-01T00:11:53.000Z</time>
      </trkpt>
      <trkpt lat="42.7631" lon="0.59082">
        <ele>1569.2</ele>
        <time>1970-01-01T00:11:54.000Z</time>
      </trkpt>
      <trkpt lat="42.7631" lon="0.59083">
        <ele>1567.8</ele>
        <time>1970-01-01T00:11:55.000Z</time>
      </trkpt>
      <trkpt lat="42.7631" lon="0.59084">
        <ele>1567.8</ele>
        <time>1970-01-01T00:11:57.000Z</time>
      </trkpt>
      <trkpt lat="42.7631" lon="0.59085">
        <ele>1567.8</ele>
        <time>1970-01-01T00:11:58.000Z</time>
      </trkpt>
      <trkpt lat="42.7631" lon="0.59085">
        <ele>1567.8</ele>
        <time>1970-01-01T00:11:59.000Z</time>
      </trkpt>
      <trkpt lat="42.7631" lon="0.59086">
        <ele>1566.5</ele>
        <time>1970-01-01T00:12:00.000Z</time>
      </trkpt>
      <trkpt lat="42.7631" lon="0.59087">
        <ele>1566.5</ele>
        <time>1970-01-01T00:12:01.000Z</time>
      </trkpt>
      <trkpt lat="42.76309" lon="0.59088">
        <ele>1566.5</ele>
        <time>1970-01-01T00:12:02.000Z</time>
      </trkpt>
      <trkpt lat="42.76309" lon="0.5909">
        <ele>1566.5</ele>
        <time>1970-01-01T00:12:04.000Z</time>
      </trkpt>
      <trkpt lat="42.76309" lon="0.59092">
        <ele>1565.2</ele>
        <time>1970-01-01T00:12:05.000Z</time>
      </trkpt>
      <trkpt lat="42.76308" lon="0.59094">
        <ele>1565.6</ele>
        <time>1970-01-01T00:12:06.000Z</time>
      </trkpt>
      <trkpt lat="42.76308" lon="0.59099">
        <ele>1563.1</ele>
        <time>1970-01-01T00:12:08.000Z</time>
      </trkpt>
      <trkpt lat="42.76307" lon="0.59102">
        <ele>1563.1</ele>
        <time>1970-01-01T00:12:09.000Z</time>
      </trkpt>
      <trkpt lat="42.76307" lon="0.59107">
        <ele>1561.9</ele>
        <time>1970-01-01T00:12:11.000Z</time>
      </trkpt>
      <trkpt lat="42.76307" lon="0.59112">
        <ele>1559.6</ele>
        <time>1970-01-01T00:12:12.000Z</time>
      </trkpt>
      <trkpt lat="42.76308" lon="0.59115">
        <ele>1559.6</ele>
        <time>1970-01-01T00:12:13.000Z</time>
      </trkpt>
      <trkpt lat="42.76309" lon="0.59119">
        <ele>1558.1</ele>
        <time>1970-01-01T00:12:14.000Z</time>
      </trkpt>
      <trkpt lat="42.76309" lon="0.59124">
        <ele>1557</ele>
        <time>1970-01-01T00:12:16.000Z</time>
      </trkpt>
      <trkpt lat="42.76309" lon="0.59133">
        <ele>1553.2</ele>
        <time>1970-01-01T00:12:17.000Z</time>
      </trkpt>
      <trkpt lat="42.76309" lon="0.59139">
        <ele>1551.9</ele>
        <time>1970-01-01T00:12:18.000Z</time>
      </trkpt>
      <trkpt lat="42.76309" lon="0.59144">
        <ele>1550.6</ele>
        <time>1970-01-01T00:12:19.000Z</time>
      </trkpt>
      <trkpt lat="42.76311" lon="0.59151">
        <ele>1548.2</ele>
        <time>1970-01-01T00:12:21.000Z</time>
      </trkpt>
      <trkpt lat="42.76315" lon="0.59159">
        <ele>1546</ele>
        <time>1970-01-01T00:12:22.000Z</time>
      </trkpt>
      <trkpt lat="42.76317" lon="0.59163">
        <ele>1545.3</ele>
        <time>1970-01-01T00:12:24.000Z</time>
      </trkpt>
      <trkpt lat="42.76318" lon="0.59164">
        <ele>1545</ele>
        <time>1970-01-01T00:12:25.000Z</time>
      </trkpt>
      <trkpt lat="42.76321" lon="0.59169">
        <ele>1544.1</ele>
        <time>1970-01-01T00:12:26.000Z</time>
      </trkpt>
      <trkpt lat="42.76322" lon="0.5917">
        <ele>1543.7</ele>
        <time>1970-01-01T00:12:27.000Z</time>
      </trkpt>
      <trkpt lat="42.76323" lon="0.59172">
        <ele>1543.3</ele>
        <time>1970-01-01T00:12:28.000Z</time>
      </trkpt>
      <trkpt lat="42.76323" lon="0.59177">
        <ele>1542.6</ele>
        <time>1970-01-01T00:12:30.000Z</time>
      </trkpt>
      <trkpt lat="42.76323" lon="0.59219">
        <ele>1532</ele>
        <time>1970-01-01T00:12:31.000Z</time>
      </trkpt>
      <trkpt lat="42.76323" lon="0.59223">
        <ele>1531.6</ele>
        <time>1970-01-01T00:12:33.000Z</time>
      </trkpt>
      <trkpt lat="42.76323" lon="0.59227">
        <ele>1531.3</ele>
        <time>1970-01-01T00:12:35.000Z</time>
      </trkpt>
      <trkpt lat="42.76323" lon="0.59228">
        <ele>1531.3</ele>
        <time>1970-01-01T00:12:36.000Z</time>
      </trkpt>
      <trkpt lat="42.76323" lon="0.5923">
        <ele>1531.1</ele>
        <time>1970-01-01T00:12:38.000Z</time>
      </trkpt>
      <trkpt lat="42.76323" lon="0.5923">
        <ele>1531.1</ele>
        <time>1970-01-01T00:12:39.000Z</time>
      </trkpt>
      <trkpt lat="42.76323" lon="0.5923">
        <ele>1531.1</ele>
        <time>1970-01-01T00:12:41.000Z</time>
      </trkpt>
      <trkpt lat="42.76326" lon="0.59229">
        <ele>1530.7</ele>
        <time>1970-01-01T00:13:34.000Z</time>
      </trkpt>
      <trkpt lat="42.76326" lon="0.59229">
        <ele>1530.6</ele>
        <time>1970-01-01T00:13:36.000Z</time>
      </trkpt>
      <trkpt lat="42.76327" lon="0.59228">
        <ele>1530.5</ele>
        <time>1970-01-01T00:13:37.000Z</time>
      </trkpt>
      <trkpt lat="42.76327" lon="0.59227">
        <ele>1530.5</ele>
        <time>1970-01-01T00:13:38.000Z</time>
      </trkpt>
      <trkpt lat="42.76327" lon="0.59227">
        <ele>1530.4</ele>
        <time>1970-01-01T00:13:39.000Z</time>
      </trkpt>
      <trkpt lat="42.76326" lon="0.59226">
        <ele>1530.4</ele>
        <time>1970-01-01T00:13:40.000Z</time>
      </trkpt>
      <trkpt lat="42.76325" lon="0.59226">
        <ele>1530.2</ele>
        <time>1970-01-01T00:13:42.000Z</time>
      </trkpt>
      <trkpt lat="42.76325" lon="0.59225">
        <ele>1530.2</ele>
        <time>1970-01-01T00:13:44.000Z</time>
      </trkpt>
      <trkpt lat="42.76325" lon="0.59224">
        <ele>1530.1</ele>
        <time>1970-01-01T00:13:46.000Z</time>
      </trkpt>
      <trkpt lat="42.76324" lon="0.59224">
        <ele>1530</ele>
        <time>1970-01-01T00:13:48.000Z</time>
      </trkpt>
      <trkpt lat="42.76324" lon="0.59223">
        <ele>1530</ele>
        <time>1970-01-01T00:13:49.000Z</time>
      </trkpt>
      <trkpt lat="42.76324" lon="0.59223">
        <ele>1529.9</ele>
        <time>1970-01-01T00:13:51.000Z</time>
      </trkpt>
      <trkpt lat="42.76324" lon="0.59223">
        <ele>1529.9</ele>
        <time>1970-01-01T00:13:53.000Z</time>
      </trkpt>
      <trkpt lat="42.76324" lon="0.59223">
        <ele>1529.9</ele>
        <time>1970-01-01T00:13:54.000Z</time>
      </trkpt>
      <trkpt lat="42.76324" lon="0.59223">
        <ele>1529.9</ele>
        <time>1970-01-01T00:13:55.000Z</time>
      </trkpt>
      <trkpt lat="42.76323" lon="0.59223">
        <ele>1529.8</ele>
        <time>1970-01-01T00:13:57.000Z</time>
      </trkpt>
      <trkpt lat="42.76323" lon="0.59223">
        <ele>1529.8</ele>
        <time>1970-01-01T00:13:59.000Z</time>
      </trkpt>
      <trkpt lat="42.76323" lon="0.59224">
        <ele>1529.7</ele>
        <time>1970-01-01T00:14:00.000Z</time>
      </trkpt>
      <trkpt lat="42.76322" lon="0.59226">
        <ele>1529.5</ele>
        <time>1970-01-01T00:14:02.000Z</time>
      </trkpt>
      <trkpt lat="42.76321" lon="0.59227">
        <ele>1529.3</ele>
        <time>1970-01-01T00:14:04.000Z</time>
      </trkpt>
      <trkpt lat="42.76323" lon="0.59229">
        <ele>1529.1</ele>
        <time>1970-01-01T00:14:05.000Z</time>
      </trkpt>
      <trkpt lat="42.76323" lon="0.59229">
        <ele>1528.9</ele>
        <time>1970-01-01T00:14:06.000Z</time>
      </trkpt>
      <trkpt lat="42.76325" lon="0.5923">
        <ele>1528.7</ele>
        <time>1970-01-01T00:14:08.000Z</time>
      </trkpt>
      <trkpt lat="42.76325" lon="0.59231">
        <ele>1528.6</ele>
        <time>1970-01-01T00:14:09.000Z</time>
      </trkpt>
      <trkpt lat="42.76326" lon="0.59231">
        <ele>1528.5</ele>
        <time>1970-01-01T00:14:11.000Z</time>
      </trkpt>
      <trkpt lat="42.76327" lon="0.59232">
        <ele>1528.3</ele>
        <time>1970-01-01T00:14:13.000Z</time>
      </trkpt>
      <trkpt lat="42.76327" lon="0.59233">
        <ele>1528.2</ele>
        <time>1970-01-01T00:14:14.000Z</time>
      </trkpt>
      <trkpt lat="42.76328" lon="0.59233">
        <ele>1528.1</ele>
        <time>1970-01-01T00:14:16.000Z</time>
      </trkpt>
      <trkpt lat="42.76329" lon="0.59233">
        <ele>1528</ele>
        <time>1970-01-01T00:14:18.000Z</time>
      </trkpt>
      <trkpt lat="42.76329" lon="0.59233">
        <ele>1527.9</ele>
        <time>1970-01-01T00:14:20.000Z</time>
      </trkpt>
      <trkpt lat="42.76329" lon="0.59233">
        <ele>1527.9</ele>
        <time>1970-01-01T00:14:21.000Z</time>
      </trkpt>
      <trkpt lat="42.7633" lon="0.59233">
        <ele>1527.8</ele>
        <time>1970-01-01T00:14:22.000Z</time>
      </trkpt>
      <trkpt lat="42.7633" lon="0.59233">
        <ele>1527.8</ele>
        <time>1970-01-01T00:14:23.000Z</time>
      </trkpt>
      <trkpt lat="42.7633" lon="0.59233">
        <ele>1527.8</ele>
        <time>1970-01-01T00:14:24.000Z</time>
      </trkpt>
      <trkpt lat="42.76325" lon="0.59231">
        <ele>1526.7</ele>
        <time>1970-01-01T00:14:26.000Z</time>
      </trkpt>
      <trkpt lat="42.76325" lon="0.5923">
        <ele>1526.7</ele>
        <time>1970-01-01T00:14:28.000Z</time>
      </trkpt>
      <trkpt lat="42.76325" lon="0.5923">
        <ele>1526.6</ele>
        <time>1970-01-01T00:14:30.000Z</time>
      </trkpt>
      <trkpt lat="42.76325" lon="0.5923">
        <ele>1526.6</ele>
        <time>1970-01-01T00:14:32.000Z</time>
      </trkpt>
      <trkpt lat="42.76325" lon="0.5923">
        <ele>1526.6</ele>
        <time>1970-01-01T00:14:33.000Z</time>
      </trkpt>
      <trkpt lat="42.76325" lon="0.5923">
        <ele>1526.6</ele>
        <time>1970-01-01T00:14:35.000Z</time>
      </trkpt>
      <trkpt lat="42.76324" lon="0.59234">
        <ele>1526</ele>
        <time>1970-01-01T00:15:32.000Z</time>
      </trkpt>
      <trkpt lat="42.76324" lon="0.59235">
        <ele>1525.9</ele>
        <time>1970-01-01T00:15:34.000Z</time>
      </trkpt>
      <trkpt lat="42.76323" lon="0.59235">
        <ele>1525.8</ele>
        <time>1970-01-01T00:15:35.000Z</time>
      </trkpt>
      <trkpt lat="42.76323" lon="0.59235">
        <ele>1525.8</ele>
        <time>1970-01-01T00:15:36.000Z</time>
      </trkpt>
      <trkpt lat="42.76323" lon="0.59235">
        <ele>1525.7</ele>
        <time>1970-01-01T00:15:38.000Z</time>
      </trkpt>
      <trkpt lat="42.76323" lon="0.59235">
        <ele>1525.7</ele>
        <time>1970-01-01T00:15:40.000Z</time>
      </trkpt>
      <trkpt lat="42.76323" lon="0.59236">
        <ele>1525.6</ele>
        <time>1970-01-01T00:15:41.000Z</time>
      </trkpt>
      <trkpt lat="42.76323" lon="0.59236">
        <ele>1525.5</ele>
        <time>1970-01-01T00:15:43.000Z</time>
      </trkpt>
      <trkpt lat="42.76323" lon="0.59236">
        <ele>1525.5</ele>
        <time>1970-01-01T00:15:45.000Z</time>
      </trkpt>
      <trkpt lat="42.76323" lon="0.59237">
        <ele>1525.4</ele>
        <time>1970-01-01T00:15:46.000Z</time>
      </trkpt>
      <trkpt lat="42.76323" lon="0.59236">
        <ele>1525.4</ele>
        <time>1970-01-01T00:15:47.000Z</time>
      </trkpt>
      <trkpt lat="42.76323" lon="0.59237">
        <ele>1525.3</ele>
        <time>1970-01-01T00:15:49.000Z</time>
      </trkpt>
      <trkpt lat="42.76323" lon="0.59237">
        <ele>1525.3</ele>
        <time>1970-01-01T00:15:51.000Z</time>
      </trkpt>
      <trkpt lat="42.76325" lon="0.59232">
        <ele>1524.4</ele>
        <time>1970-01-01T00:15:53.000Z</time>
      </trkpt>
      <trkpt lat="42.76325" lon="0.59232">
        <ele>1524.3</ele>
        <time>1970-01-01T00:15:54.000Z</time>
      </trkpt>
      <trkpt lat="42.76324" lon="0.59233">
        <ele>1524.2</ele>
        <time>1970-01-01T00:15:55.000Z</time>
      </trkpt>
      <trkpt lat="42.76324" lon="0.59234">
        <ele>1524</ele>
        <time>1970-01-01T00:15:57.000Z</time>
      </trkpt>
      <trkpt lat="42.76324" lon="0.59236">
        <ele>1523.7</ele>
        <time>1970-01-01T00:15:58.000Z</time>
      </trkpt>
      <trkpt lat="42.76324" lon="0.59237">
        <ele>1523.5</ele>
        <time>1970-01-01T00:16:00.000Z</time>
      </trkpt>
      <trkpt lat="42.76324" lon="0.59238">
        <ele>1523.3</ele>
        <time>1970-01-01T00:16:03.000Z</time>
      </trkpt>
      <trkpt lat="42.76323" lon="0.59238">
        <ele>1523.2</ele>
        <time>1970-01-01T00:16:04.000Z</time>
      </trkpt>
      <trkpt lat="42.76323" lon="0.59239">
        <ele>1523.2</ele>
        <time>1970-01-01T00:16:05.000Z</time>
      </trkpt>
      <trkpt lat="42.76323" lon="0.59239">
        <ele>1523.1</ele>
        <time>1970-01-01T00:16:06.000Z</time>
      </trkpt>
      <trkpt lat="42.76322" lon="0.59239">
        <ele>1523</ele>
        <time>1970-01-01T00:16:08.000Z</time>
      </trkpt>
      <trkpt lat="42.76322" lon="0.59239">
        <ele>1522.9</ele>
        <time>1970-01-01T00:16:10.000Z</time>
      </trkpt>
      <trkpt lat="42.76322" lon="0.59239">
        <ele>1522.9</ele>
        <time>1970-01-01T00:16:11.000Z</time>
      </trkpt>
      <trkpt lat="42.76322" lon="0.59239">
        <ele>1522.8</ele>
        <time>1970-01-01T00:16:13.000Z</time>
      </trkpt>
      <trkpt lat="42.76322" lon="0.59239">
        <ele>1522.8</ele>
        <time>1970-01-01T00:16:14.000Z</time>
      </trkpt>
      <trkpt lat="42.76325" lon="0.59231">
        <ele>1521.2</ele>
        <time>1970-01-01T00:16:16.000Z</time>
      </trkpt>
      <trkpt lat="42.76325" lon="0.5923">
        <ele>1521.1</ele>
        <time>1970-01-01T00:16:18.000Z</time>
      </trkpt>
      <trkpt lat="42.76325" lon="0.5923">
        <ele>1521</ele>
        <time>1970-01-01T00:16:20.000Z</time>
      </trkpt>
      <trkpt lat="42.76325" lon="0.5923">
        <ele>1521</ele>
        <time>1970-01-01T00:16:22.000Z</time>
      </trkpt>
      <trkpt lat="42.76325" lon="0.5923">
        <ele>1521</ele>
        <time>1970-01-01T00:16:23.000Z</time>
      </trkpt>
      <trkpt lat="42.76326" lon="0.5923">
        <ele>1520.9</ele>
        <time>1970-01-01T00:16:25.000Z</time>
      </trkpt>
      <trkpt lat="42.76313" lon="0.59239">
        <ele>1517.8</ele>
        <time>1970-01-01T00:16:30.000Z</time>
      </trkpt>
      <trkpt lat="42.76293" lon="0.59256">
        <ele>1511.6</ele>
        <time>1970-01-01T00:16:32.000Z</time>
      </trkpt>
      <trkpt lat="42.76277" lon="0.59277">
        <ele>1505.1</ele>
        <time>1970-01-01T00:16:34.000Z</time>
      </trkpt>
      <trkpt lat="42.76269" lon="0.59287">
        <ele>1502.4</ele>
        <time>1970-01-01T00:16:35.000Z</time>
      </trkpt>
      <trkpt lat="42.76262" lon="0.59296">
        <ele>1500.2</ele>
        <time>1970-01-01T00:16:36.000Z</time>
      </trkpt>
      <trkpt lat="42.76248" lon="0.59313">
        <ele>1496.4</ele>
        <time>1970-01-01T00:16:38.000Z</time>
      </trkpt>
      <trkpt lat="42.76245" lon="0.59328">
        <ele>1493.9</ele>
        <time>1970-01-01T00:16:40.000Z</time>
      </trkpt>
      <trkpt lat="42.76247" lon="0.59336">
        <ele>1492.4</ele>
        <time>1970-01-01T00:16:41.000Z</time>
      </trkpt>
      <trkpt lat="42.76248" lon="0.59348">
        <ele>1490.5</ele>
        <time>1970-01-01T00:16:42.000Z</time>
      </trkpt>
      <trkpt lat="42.76247" lon="0.59359">
        <ele>1488.6</ele>
        <time>1970-01-01T00:16:43.000Z</time>
      </trkpt>
      <trkpt lat="42.76246" lon="0.59383">
        <ele>1484.5</ele>
        <time>1970-01-01T00:16:45.000Z</time>
      </trkpt>
      <trkpt lat="42.76246" lon="0.59393">
        <ele>1482.8</ele>
        <time>1970-01-01T00:16:46.000Z</time>
      </trkpt>
      <trkpt lat="42.76246" lon="0.59399">
        <ele>1481.6</ele>
        <time>1970-01-01T00:16:47.000Z</time>
      </trkpt>
      <trkpt lat="42.76251" lon="0.59401">
        <ele>1480.4</ele>
        <time>1970-01-01T00:16:49.000Z</time>
      </trkpt>
      <trkpt lat="42.76257" lon="0.59406">
        <ele>1478.4</ele>
        <time>1970-01-01T00:16:51.000Z</time>
      </trkpt>
      <trkpt lat="42.76262" lon="0.59412">
        <ele>1476.7</ele>
        <time>1970-01-01T00:16:52.000Z</time>
      </trkpt>
      <trkpt lat="42.76273" lon="0.59428">
        <ele>1472.4</ele>
        <time>1970-01-01T00:16:54.000Z</time>
      </trkpt>
      <trkpt lat="42.7628" lon="0.5944">
        <ele>1469.7</ele>
        <time>1970-01-01T00:16:55.000Z</time>
      </trkpt>
      <trkpt lat="42.76294" lon="0.59463">
        <ele>1464.2</ele>
        <time>1970-01-01T00:16:57.000Z</time>
      </trkpt>
      <trkpt lat="42.76302" lon="0.59473">
        <ele>1461.7</ele>
        <time>1970-01-01T00:16:58.000Z</time>
      </trkpt>
      <trkpt lat="42.76317" lon="0.59487">
        <ele>1457.6</ele>
        <time>1970-01-01T00:17:00.000Z</time>
      </trkpt>
      <trkpt lat="42.76324" lon="0.59492">
        <ele>1456.1</ele>
        <time>1970-01-01T00:17:01.000Z</time>
      </trkpt>
      <trkpt lat="42.76331" lon="0.59496">
        <ele>1454.9</ele>
        <time>1970-01-01T00:17:02.000Z</time>
      </trkpt>
      <trkpt lat="42.76342" lon="0.59498">
        <ele>1453.4</ele>
        <time>1970-01-01T00:17:04.000Z</time>
      </trkpt>
      <trkpt lat="42.76351" lon="0.59494">
        <ele>1451.9</ele>
        <time>1970-01-01T00:17:06.000Z</time>
      </trkpt>
      <trkpt lat="42.76356" lon="0.59491">
        <ele>1451</ele>
        <time>1970-01-01T00:17:07.000Z</time>
      </trkpt>
      <trkpt lat="42.76364" lon="0.59482">
        <ele>1449.4</ele>
        <time>1970-01-01T00:17:09.000Z</time>
      </trkpt>
      <trkpt lat="42.76373" lon="0.59471">
        <ele>1447.5</ele>
        <time>1970-01-01T00:17:11.000Z</time>
      </trkpt>
      <trkpt lat="42.76385" lon="0.59455">
        <ele>1445.3</ele>
        <time>1970-01-01T00:17:13.000Z</time>
      </trkpt>
      <trkpt lat="42.76397" lon="0.59441">
        <ele>1443.1</ele>
        <time>1970-01-01T00:17:15.000Z</time>
      </trkpt>
      <trkpt lat="42.76404" lon="0.59437">
        <ele>1442.1</ele>
        <time>1970-01-01T00:17:16.000Z</time>
      </trkpt>
      <trkpt lat="42.76413" lon="0.59433">
        <ele>1441</ele>
        <time>1970-01-01T00:17:17.000Z</time>
      </trkpt>
      <trkpt lat="42.76429" lon="0.59426">
        <ele>1438.3</ele>
        <time>1970-01-01T00:17:19.000Z</time>
      </trkpt>
      <trkpt lat="42.76437" lon="0.59425">
        <ele>1436.8</ele>
        <time>1970-01-01T00:17:20.000Z</time>
      </trkpt>
      <trkpt lat="42.76443" lon="0.59427">
        <ele>1435.5</ele>
        <time>1970-01-01T00:17:21.000Z</time>
      </trkpt>
      <trkpt lat="42.76448" lon="0.59438">
        <ele>1433.4</ele>
        <time>1970-01-01T00:17:23.000Z</time>
      </trkpt>
      <trkpt lat="42.7645" lon="0.59444">
        <ele>1432.2</ele>
        <time>1970-01-01T00:17:24.000Z</time>
      </trkpt>
      <trkpt lat="42.76452" lon="0.5946">
        <ele>1429.3</ele>
        <time>1970-01-01T00:17:26.000Z</time>
      </trkpt>
      <trkpt lat="42.76452" lon="0.59468">
        <ele>1428</ele>
        <time>1970-01-01T00:17:27.000Z</time>
      </trkpt>
      <trkpt lat="42.76451" lon="0.59488">
        <ele>1424.8</ele>
        <time>1970-01-01T00:17:29.000Z</time>
      </trkpt>
      <trkpt lat="42.7645" lon="0.59499">
        <ele>1423.1</ele>
        <time>1970-01-01T00:17:30.000Z</time>
      </trkpt>
      <trkpt lat="42.76448" lon="0.59509">
        <ele>1421.4</ele>
        <time>1970-01-01T00:17:31.000Z</time>
      </trkpt>
      <trkpt lat="42.76444" lon="0.59518">
        <ele>1419.9</ele>
        <time>1970-01-01T00:17:32.000Z</time>
      </trkpt>
      <trkpt lat="42.76434" lon="0.59534">
        <ele>1416.6</ele>
        <time>1970-01-01T00:17:34.000Z</time>
      </trkpt>
      <trkpt lat="42.7643" lon="0.59539">
        <ele>1415.3</ele>
        <time>1970-01-01T00:17:35.000Z</time>
      </trkpt>
      <trkpt lat="42.76426" lon="0.59546">
        <ele>1413.6</ele>
        <time>1970-01-01T00:17:36.000Z</time>
      </trkpt>
      <trkpt lat="42.7643" lon="0.59547">
        <ele>1412.6</ele>
        <time>1970-01-01T00:17:38.000Z</time>
      </trkpt>
      <trkpt lat="42.7643" lon="0.59551">
        <ele>1411.7</ele>
        <time>1970-01-01T00:17:39.000Z</time>
      </trkpt>
      <trkpt lat="42.76427" lon="0.59555">
        <ele>1410.7</ele>
        <time>1970-01-01T00:17:41.000Z</time>
      </trkpt>
      <trkpt lat="42.76425" lon="0.59559">
        <ele>1409.7</ele>
        <time>1970-01-01T00:17:42.000Z</time>
      </trkpt>
      <trkpt lat="42.76419" lon="0.59568">
        <ele>1407.2</ele>
        <time>1970-01-01T00:17:43.000Z</time>
      </trkpt>
      <trkpt lat="42.76406" lon="0.59587">
        <ele>1401.6</ele>
        <time>1970-01-01T00:17:45.000Z</time>
      </trkpt>
      <trkpt lat="42.76401" lon="0.59595">
        <ele>1398.8</ele>
        <time>1970-01-01T00:17:46.000Z</time>
      </trkpt>
      <trkpt lat="42.76394" lon="0.59604">
        <ele>1395.6</ele>
        <time>1970-01-01T00:17:48.000Z</time>
      </trkpt>
      <trkpt lat="42.764" lon="0.59604">
        <ele>1393.8</ele>
        <time>1970-01-01T00:17:49.000Z</time>
      </trkpt>
      <trkpt lat="42.76407" lon="0.59603">
        <ele>1392.2</ele>
        <time>1970-01-01T00:17:50.000Z</time>
      </trkpt>
      <trkpt lat="42.76413" lon="0.59602">
        <ele>1390.6</ele>
        <time>1970-01-01T00:17:52.000Z</time>
      </trkpt>
      <trkpt lat="42.76422" lon="0.59602">
        <ele>1388.5</ele>
        <time>1970-01-01T00:17:53.000Z</time>
      </trkpt>
      <trkpt lat="42.7644" lon="0.596">
        <ele>1384.8</ele>
        <time>1970-01-01T00:17:55.000Z</time>
      </trkpt>
      <trkpt lat="42.76456" lon="0.59594">
        <ele>1381.4</ele>
        <time>1970-01-01T00:17:57.000Z</time>
      </trkpt>
      <trkpt lat="42.76469" lon="0.5959">
        <ele>1378.7</ele>
        <time>1970-01-01T00:17:59.000Z</time>
      </trkpt>
      <trkpt lat="42.76474" lon="0.5959">
        <ele>1377.6</ele>
        <time>1970-01-01T00:18:00.000Z</time>
      </trkpt>
      <trkpt lat="42.7648" lon="0.59589">
        <ele>1376.3</ele>
        <time>1970-01-01T00:18:01.000Z</time>
      </trkpt>
      <trkpt lat="42.76486" lon="0.59589">
        <ele>1375</ele>
        <time>1970-01-01T00:18:02.000Z</time>
      </trkpt>
      <trkpt lat="42.76501" lon="0.59588">
        <ele>1372.5</ele>
        <time>1970-01-01T00:18:04.000Z</time>
      </trkpt>
      <trkpt lat="42.76508" lon="0.59588">
        <ele>1371.4</ele>
        <time>1970-01-01T00:18:05.000Z</time>
      </trkpt>
      <trkpt lat="42.76516" lon="0.59588">
        <ele>1370.4</ele>
        <time>1970-01-01T00:18:06.000Z</time>
      </trkpt>
      <trkpt lat="42.76526" lon="0.59584">
        <ele>1369.1</ele>
        <time>1970-01-01T00:18:08.000Z</time>
      </trkpt>
      <trkpt lat="42.76529" lon="0.59581">
        <ele>1368.7</ele>
        <time>1970-01-01T00:18:09.000Z</time>
      </trkpt>
      <trkpt lat="42.76529" lon="0.59577">
        <ele>1368.2</ele>
        <time>1970-01-01T00:18:10.000Z</time>
      </trkpt>
      <trkpt lat="42.76529" lon="0.59576">
        <ele>1368.1</ele>
        <time>1970-01-01T00:18:11.000Z</time>
      </trkpt>
      <trkpt lat="42.76529" lon="0.59574">
        <ele>1367.8</ele>
        <time>1970-01-01T00:18:12.000Z</time>
      </trkpt>
      <trkpt lat="42.7653" lon="0.59573">
        <ele>1367.7</ele>
        <time>1970-01-01T00:18:13.000Z</time>
      </trkpt>
      <trkpt lat="42.76531" lon="0.59572">
        <ele>1367.5</ele>
        <time>1970-01-01T00:18:15.000Z</time>
      </trkpt>
      <trkpt lat="42.76532" lon="0.59571">
        <ele>1367.2</ele>
        <time>1970-01-01T00:18:16.000Z</time>
      </trkpt>
      <trkpt lat="42.76532" lon="0.59571">
        <ele>1367</ele>
        <time>1970-01-01T00:18:17.000Z</time>
      </trkpt>
      <trkpt lat="42.76539" lon="0.5957">
        <ele>1365.5</ele>
        <time>1970-01-01T00:18:18.000Z</time>
      </trkpt>
      <trkpt lat="42.76546" lon="0.59568">
        <ele>1363.6</ele>
        <time>1970-01-01T00:18:19.000Z</time>
      </trkpt>
      <trkpt lat="42.76564" lon="0.5956">
        <ele>1358.5</ele>
        <time>1970-01-01T00:18:21.000Z</time>
      </trkpt>
      <trkpt lat="42.76573" lon="0.59555">
        <ele>1355.8</ele>
        <time>1970-01-01T00:18:22.000Z</time>
      </trkpt>
      <trkpt lat="42.7658" lon="0.5955">
        <ele>1353.4</ele>
        <time>1970-01-01T00:18:23.000Z</time>
      </trkpt>
      <trkpt lat="42.76587" lon="0.59543">
        <ele>1351.2</ele>
        <time>1970-01-01T00:18:24.000Z</time>
      </trkpt>
      <trkpt lat="42.76601" lon="0.59528">
        <ele>1346.7</ele>
        <time>1970-01-01T00:18:26.000Z</time>
      </trkpt>
      <trkpt lat="42.76609" lon="0.59521">
        <ele>1344.2</ele>
        <time>1970-01-01T00:18:27.000Z</time>
      </trkpt>
      <trkpt lat="42.76626" lon="0.59506">
        <ele>1339.4</ele>
        <time>1970-01-01T00:18:29.000Z</time>
      </trkpt>
      <trkpt lat="42.76634" lon="0.59499">
        <ele>1337.1</ele>
        <time>1970-01-01T00:18:30.000Z</time>
      </trkpt>
      <trkpt lat="42.76642" lon="0.59493">
        <ele>1335.1</ele>
        <time>1970-01-01T00:18:31.000Z</time>
      </trkpt>
      <trkpt lat="42.76649" lon="0.59488">
        <ele>1333.3</ele>
        <time>1970-01-01T00:18:32.000Z</time>
      </trkpt>
      <trkpt lat="42.76655" lon="0.59486">
        <ele>1332</ele>
        <time>1970-01-01T00:18:33.000Z</time>
      </trkpt>
      <trkpt lat="42.76667" lon="0.59489">
        <ele>1329.4</ele>
        <time>1970-01-01T00:18:35.000Z</time>
      </trkpt>
      <trkpt lat="42.76671" lon="0.59496">
        <ele>1327.6</ele>
        <time>1970-01-01T00:18:36.000Z</time>
      </trkpt>
      <trkpt lat="42.76674" lon="0.59508">
        <ele>1324.6</ele>
        <time>1970-01-01T00:18:37.000Z</time>
      </trkpt>
      <trkpt lat="42.76681" lon="0.59524">
        <ele>1317.4</ele>
        <time>1970-01-01T00:18:39.000Z</time>
      </trkpt>
      <trkpt lat="42.76685" lon="0.59528">
        <ele>1314.5</ele>
        <time>1970-01-01T00:18:40.000Z</time>
      </trkpt>
      <trkpt lat="42.76688" lon="0.59529">
        <ele>1312.4</ele>
        <time>1970-01-01T00:18:41.000Z</time>
      </trkpt>
      <trkpt lat="42.76689" lon="0.59526">
        <ele>1312.9</ele>
        <time>1970-01-01T00:18:42.000Z</time>
      </trkpt>
      <trkpt lat="42.7669" lon="0.59518">
        <ele>1311.8</ele>
        <time>1970-01-01T00:18:43.000Z</time>
      </trkpt>
      <trkpt lat="42.76693" lon="0.59507">
        <ele>1312.9</ele>
        <time>1970-01-01T00:18:44.000Z</time>
      </trkpt>
      <trkpt lat="42.76698" lon="0.59487">
        <ele>1310.4</ele>
        <time>1970-01-01T00:18:46.000Z</time>
      </trkpt>
      <trkpt lat="42.76702" lon="0.5948">
        <ele>1308.3</ele>
        <time>1970-01-01T00:18:47.000Z</time>
      </trkpt>
      <trkpt lat="42.7671" lon="0.59473">
        <ele>1300.5</ele>
        <time>1970-01-01T00:18:49.000Z</time>
      </trkpt>
      <trkpt lat="42.76714" lon="0.59476">
        <ele>1297.4</ele>
        <time>1970-01-01T00:18:51.000Z</time>
      </trkpt>
      <trkpt lat="42.76717" lon="0.59485">
        <ele>1293.2</ele>
        <time>1970-01-01T00:18:52.000Z</time>
      </trkpt>
      <trkpt lat="42.76721" lon="0.59491">
        <ele>1286.5</ele>
        <time>1970-01-01T00:18:53.000Z</time>
      </trkpt>
      <trkpt lat="42.76726" lon="0.59498">
        <ele>1283</ele>
        <time>1970-01-01T00:18:54.000Z</time>
      </trkpt>
      <trkpt lat="42.76733" lon="0.59514">
        <ele>1276.9</ele>
        <time>1970-01-01T00:18:56.000Z</time>
      </trkpt>
      <trkpt lat="42.76735" lon="0.59519">
        <ele>1274</ele>
        <time>1970-01-01T00:18:57.000Z</time>
      </trkpt>
      <trkpt lat="42.76737" lon="0.59526">
        <ele>1271.2</ele>
        <time>1970-01-01T00:18:58.000Z</time>
      </trkpt>
      <trkpt lat="42.76736" lon="0.5952">
        <ele>1273.6</ele>
        <time>1970-01-01T00:19:00.000Z</time>
      </trkpt>
      <trkpt lat="42.76735" lon="0.59518">
        <ele>1273.4</ele>
        <time>1970-01-01T00:19:01.000Z</time>
      </trkpt>
      <trkpt lat="42.76737" lon="0.59519">
        <ele>1270.5</ele>
        <time>1970-01-01T00:19:02.000Z</time>
      </trkpt>
      <trkpt lat="42.76737" lon="0.59503">
        <ele>1270.1</ele>
        <time>1970-01-01T00:19:04.000Z</time>
      </trkpt>
      <trkpt lat="42.76738" lon="0.59493">
        <ele>1269.9</ele>
        <time>1970-01-01T00:19:05.000Z</time>
      </trkpt>
      <trkpt lat="42.7674" lon="0.59483">
        <ele>1269.9</ele>
        <time>1970-01-01T00:19:06.000Z</time>
      </trkpt>
      <trkpt lat="42.76746" lon="0.59466">
        <ele>1263.9</ele>
        <time>1970-01-01T00:19:08.000Z</time>
      </trkpt>
      <trkpt lat="42.7675" lon="0.59456">
        <ele>1257.1</ele>
        <time>1970-01-01T00:19:09.000Z</time>
      </trkpt>
      <trkpt lat="42.76759" lon="0.5944">
        <ele>1246.7</ele>
        <time>1970-01-01T00:19:11.000Z</time>
      </trkpt>
      <trkpt lat="42.76764" lon="0.59434">
        <ele>1243.3</ele>
        <time>1970-01-01T00:19:12.000Z</time>
      </trkpt>
      <trkpt lat="42.76773" lon="0.59426">
        <ele>1233.9</ele>
        <time>1970-01-01T00:19:14.000Z</time>
      </trkpt>
      <trkpt lat="42.76778" lon="0.59429">
        <ele>1230.4</ele>
        <time>1970-01-01T00:19:15.000Z</time>
      </trkpt>
      <trkpt lat="42.76781" lon="0.59445">
        <ele>1226.4</ele>
        <time>1970-01-01T00:19:17.000Z</time>
      </trkpt>
      <trkpt lat="42.76784" lon="0.59464">
        <ele>1223.2</ele>
        <time>1970-01-01T00:19:19.000Z</time>
      </trkpt>
      <trkpt lat="42.76786" lon="0.59474">
        <ele>1220.6</ele>
        <time>1970-01-01T00:19:20.000Z</time>
      </trkpt>
      <trkpt lat="42.7679" lon="0.59484">
        <ele>1218.1</ele>
        <time>1970-01-01T00:19:21.000Z</time>
      </trkpt>
      <trkpt lat="42.76796" lon="0.59504">
        <ele>1214.4</ele>
        <time>1970-01-01T00:19:23.000Z</time>
      </trkpt>
      <trkpt lat="42.76802" lon="0.5952">
        <ele>1210.1</ele>
        <time>1970-01-01T00:19:25.000Z</time>
      </trkpt>
      <trkpt lat="42.76803" lon="0.59526">
        <ele>1207.1</ele>
        <time>1970-01-01T00:19:26.000Z</time>
      </trkpt>
      <trkpt lat="42.76805" lon="0.59536">
        <ele>1207.7</ele>
        <time>1970-01-01T00:19:28.000Z</time>
      </trkpt>
      <trkpt lat="42.76802" lon="0.59536">
        <ele>1210.6</ele>
        <time>1970-01-01T00:19:29.000Z</time>
      </trkpt>
      <trkpt lat="42.76799" lon="0.59538">
        <ele>1213.7</ele>
        <time>1970-01-01T00:19:31.000Z</time>
      </trkpt>
      <trkpt lat="42.76797" lon="0.59541">
        <ele>1216.5</ele>
        <time>1970-01-01T00:19:32.000Z</time>
      </trkpt>
      <trkpt lat="42.76797" lon="0.59555">
        <ele>1214.4</ele>
        <time>1970-01-01T00:19:33.000Z</time>
      </trkpt>
      <trkpt lat="42.76798" lon="0.59565">
        <ele>1214.6</ele>
        <time>1970-01-01T00:19:34.000Z</time>
      </trkpt>
      <trkpt lat="42.76798" lon="0.59574">
        <ele>1214.4</ele>
        <time>1970-01-01T00:19:36.000Z</time>
      </trkpt>
      <trkpt lat="42.76796" lon="0.59573">
        <ele>1216.9</ele>
        <time>1970-01-01T00:19:38.000Z</time>
      </trkpt>
      <trkpt lat="42.76798" lon="0.59574">
        <ele>1214</ele>
        <time>1970-01-01T00:19:40.000Z</time>
      </trkpt>
      <trkpt lat="42.76804" lon="0.59557">
        <ele>1207.2</ele>
        <time>1970-01-01T00:19:42.000Z</time>
      </trkpt>
      <trkpt lat="42.76806" lon="0.59549">
        <ele>1203.5</ele>
        <time>1970-01-01T00:19:43.000Z</time>
      </trkpt>
      <trkpt lat="42.76809" lon="0.59543">
        <ele>1202.8</ele>
        <time>1970-01-01T00:19:44.000Z</time>
      </trkpt>
      <trkpt lat="42.76812" lon="0.59536">
        <ele>1198.8</ele>
        <time>1970-01-01T00:19:45.000Z</time>
      </trkpt>
      <trkpt lat="42.76817" lon="0.59521">
        <ele>1192.1</ele>
        <time>1970-01-01T00:19:47.000Z</time>
      </trkpt>
      <trkpt lat="42.76822" lon="0.59509">
        <ele>1186.1</ele>
        <time>1970-01-01T00:19:49.000Z</time>
      </trkpt>
      <trkpt lat="42.76828" lon="0.59498">
        <ele>1182.8</ele>
        <time>1970-01-01T00:19:51.000Z</time>
      </trkpt>
      <trkpt lat="42.76831" lon="0.59492">
        <ele>1179.6</ele>
        <time>1970-01-01T00:19:52.000Z</time>
      </trkpt>
      <trkpt lat="42.76838" lon="0.59477">
        <ele>1171.8</ele>
        <time>1970-01-01T00:19:54.000Z</time>
      </trkpt>
      <trkpt lat="42.76841" lon="0.5947">
        <ele>1169.6</ele>
        <time>1970-01-01T00:19:55.000Z</time>
      </trkpt>
      <trkpt lat="42.76844" lon="0.59464">
        <ele>1169.4</ele>
        <time>1970-01-01T00:19:56.000Z</time>
      </trkpt>
      <trkpt lat="42.76849" lon="0.59459">
        <ele>1166</ele>
        <time>1970-01-01T00:19:58.000Z</time>
      </trkpt>
      <trkpt lat="42.76856" lon="0.59465">
        <ele>1162.1</ele>
        <time>1970-01-01T00:20:00.000Z</time>
      </trkpt>
      <trkpt lat="42.7686" lon="0.59473">
        <ele>1161.6</ele>
        <time>1970-01-01T00:20:01.000Z</time>
      </trkpt>
      <trkpt lat="42.7687" lon="0.59488">
        <ele>1160.5</ele>
        <time>1970-01-01T00:20:03.000Z</time>
      </trkpt>
      <trkpt lat="42.76875" lon="0.59495">
        <ele>1160</ele>
        <time>1970-01-01T00:20:04.000Z</time>
      </trkpt>
      <trkpt lat="42.76885" lon="0.59511">
        <ele>1158.8</ele>
        <time>1970-01-01T00:20:06.000Z</time>
      </trkpt>
      <trkpt lat="42.7689" lon="0.59519">
        <ele>1158</ele>
        <time>1970-01-01T00:20:07.000Z</time>
      </trkpt>
      <trkpt lat="42.76894" lon="0.59527">
        <ele>1157.3</ele>
        <time>1970-01-01T00:20:08.000Z</time>
      </trkpt>
      <trkpt lat="42.76896" lon="0.59536">
        <ele>1156.7</ele>
        <time>1970-01-01T00:20:09.000Z</time>
      </trkpt>
      <trkpt lat="42.76895" lon="0.59552">
        <ele>1155.6</ele>
        <time>1970-01-01T00:20:11.000Z</time>
      </trkpt>
      <trkpt lat="42.7689" lon="0.59571">
        <ele>1154.3</ele>
        <time>1970-01-01T00:20:13.000Z</time>
      </trkpt>
      <trkpt lat="42.76884" lon="0.59597">
        <ele>1153.5</ele>
        <time>1970-01-01T00:20:15.000Z</time>
      </trkpt>
      <trkpt lat="42.76883" lon="0.59612">
        <ele>1153.1</ele>
        <time>1970-01-01T00:20:16.000Z</time>
      </trkpt>
      <trkpt lat="42.76883" lon="0.59624">
        <ele>1152.8</ele>
        <time>1970-01-01T00:20:17.000Z</time>
      </trkpt>
      <trkpt lat="42.76883" lon="0.59633">
        <ele>1152.5</ele>
        <time>1970-01-01T00:20:18.000Z</time>
      </trkpt>
      <trkpt lat="42.76872" lon="0.59648">
        <ele>1152.1</ele>
        <time>1970-01-01T00:20:20.000Z</time>
      </trkpt>
      <trkpt lat="42.76857" lon="0.59663">
        <ele>1151.8</ele>
        <time>1970-01-01T00:20:22.000Z</time>
      </trkpt>
      <trkpt lat="42.7685" lon="0.59674">
        <ele>1151.8</ele>
        <time>1970-01-01T00:20:23.000Z</time>
      </trkpt>
      <trkpt lat="42.76843" lon="0.59686">
        <ele>1151.8</ele>
        <time>1970-01-01T00:20:24.000Z</time>
      </trkpt>
      <trkpt lat="42.7683" lon="0.59709">
        <ele>1152.1</ele>
        <time>1970-01-01T00:20:26.000Z</time>
      </trkpt>
      <trkpt lat="42.76824" lon="0.5972">
        <ele>1152.2</ele>
        <time>1970-01-01T00:20:27.000Z</time>
      </trkpt>
      <trkpt lat="42.76814" lon="0.59742">
        <ele>1152.2</ele>
        <time>1970-01-01T00:20:29.000Z</time>
      </trkpt>
      <trkpt lat="42.76812" lon="0.59754">
        <ele>1152.2</ele>
        <time>1970-01-01T00:20:30.000Z</time>
      </trkpt>
      <trkpt lat="42.7681" lon="0.59767">
        <ele>1152.2</ele>
        <time>1970-01-01T00:20:31.000Z</time>
      </trkpt>
      <trkpt lat="42.76807" lon="0.59779">
        <ele>1152.1</ele>
        <time>1970-01-01T00:20:32.000Z</time>
      </trkpt>
      <trkpt lat="42.76799" lon="0.59798">
        <ele>1151.9</ele>
        <time>1970-01-01T00:20:34.000Z</time>
      </trkpt>
      <trkpt lat="42.7679" lon="0.59808">
        <ele>1151.8</ele>
        <time>1970-01-01T00:20:36.000Z</time>
      </trkpt>
      <trkpt lat="42.76788" lon="0.5981">
        <ele>1151.8</ele>
        <time>1970-01-01T00:20:37.000Z</time>
      </trkpt>
      <trkpt lat="42.76783" lon="0.59814">
        <ele>1151.7</ele>
        <time>1970-01-01T00:20:39.000Z</time>
      </trkpt>
      <trkpt lat="42.76785" lon="0.59807">
        <ele>1151.6</ele>
        <time>1970-01-01T00:20:40.000Z</time>
      </trkpt>
      <trkpt lat="42.76789" lon="0.59803">
        <ele>1151.5</ele>
        <time>1970-01-01T00:20:41.000Z</time>
      </trkpt>
      <trkpt lat="42.76782" lon="0.59801">
        <ele>1151.3</ele>
        <time>1970-01-01T00:20:42.000Z</time>
      </trkpt>
      <trkpt lat="42.76779" lon="0.59802">
        <ele>1151.3</ele>
        <time>1970-01-01T00:20:44.000Z</time>
      </trkpt>
      <trkpt lat="42.76778" lon="0.59803">
        <ele>1151.2</ele>
        <time>1970-01-01T00:20:45.000Z</time>
      </trkpt>
      <trkpt lat="42.76776" lon="0.598">
        <ele>1151.2</ele>
        <time>1970-01-01T00:20:46.000Z</time>
      </trkpt>
      <trkpt lat="42.76778" lon="0.59795">
        <ele>1151.1</ele>
        <time>1970-01-01T00:20:48.000Z</time>
      </trkpt>
      <trkpt lat="42.76781" lon="0.59793">
        <ele>1151.1</ele>
        <time>1970-01-01T00:20:49.000Z</time>
      </trkpt>
      <trkpt lat="42.76782" lon="0.59793">
        <ele>1151</ele>
        <time>1970-01-01T00:20:50.000Z</time>
      </trkpt>
      <trkpt lat="42.76785" lon="0.59792">
        <ele>1151</ele>
        <time>1970-01-01T00:20:52.000Z</time>
      </trkpt>
      <trkpt lat="42.76784" lon="0.5979">
        <ele>1151</ele>
        <time>1970-01-01T00:20:53.000Z</time>
      </trkpt>
      <trkpt lat="42.76783" lon="0.59787">
        <ele>1150.9</ele>
        <time>1970-01-01T00:20:55.000Z</time>
      </trkpt>
      <trkpt lat="42.76782" lon="0.59785">
        <ele>1150.9</ele>
        <time>1970-01-01T00:20:56.000Z</time>
      </trkpt>
      <trkpt lat="42.76782" lon="0.59784">
        <ele>1150.9</ele>
        <time>1970-01-01T00:20:58.000Z</time>
      </trkpt>
      <trkpt lat="42.76782" lon="0.59784">
        <ele>1150.9</ele>
        <time>1970-01-01T00:20:59.000Z</time>
      </trkpt>
      <trkpt lat="42.76782" lon="0.59784">
        <ele>1150.9</ele>
        <time>1970-01-01T00:21:00.000Z</time>
      </trkpt>
      <trkpt lat="42.76781" lon="0.59784">
        <ele>1150.9</ele>
        <time>1970-01-01T00:21:02.000Z</time>
      </trkpt>
      <trkpt lat="42.76781" lon="0.59784">
        <ele>1150.9</ele>
        <time>1970-01-01T00:21:03.000Z</time>
      </trkpt>
      <trkpt lat="42.7678" lon="0.59784">
        <ele>1150.9</ele>
        <time>1970-01-01T00:21:04.000Z</time>
      </trkpt>
      <trkpt lat="42.7678" lon="0.59784">
        <ele>1150.9</ele>
        <time>1970-01-01T00:21:05.000Z</time>
      </trkpt>
      <trkpt lat="42.7678" lon="0.59784">
        <ele>1150.9</ele>
        <time>1970-01-01T00:21:06.000Z</time>
      </trkpt>
      <trkpt lat="42.7678" lon="0.59784">
        <ele>1150.9</ele>
        <time>1970-01-01T00:21:08.000Z</time>
      </trkpt>
      <trkpt lat="42.76767" lon="0.59789">
        <ele>1150.6</ele>
        <time>1970-01-01T00:22:10.000Z</time>
      </trkpt>
      <trkpt lat="42.76765" lon="0.59794">
        <ele>1150.4</ele>
        <time>1970-01-01T00:22:12.000Z</time>
      </trkpt>
      <trkpt lat="42.76763" lon="0.59798">
        <ele>1150.3</ele>
        <time>1970-01-01T00:22:13.000Z</time>
      </trkpt>
      <trkpt lat="42.76761" lon="0.59802">
        <ele>1150.2</ele>
        <time>1970-01-01T00:22:15.000Z</time>
      </trkpt>
      <trkpt lat="42.76759" lon="0.59804">
        <ele>1150.1</ele>
        <time>1970-01-01T00:22:17.000Z</time>
      </trkpt>
      <trkpt lat="42.76755" lon="0.59806">
        <ele>1150</ele>
        <time>1970-01-01T00:22:19.000Z</time>
      </trkpt>
      <trkpt lat="42.76754" lon="0.59807">
        <ele>1149.9</ele>
        <time>1970-01-01T00:22:20.000Z</time>
      </trkpt>
      <trkpt lat="42.76745" lon="0.59817">
        <ele>1149.5</ele>
        <time>1970-01-01T00:22:22.000Z</time>
      </trkpt>
      <trkpt lat="42.76731" lon="0.59832">
        <ele>1148.8</ele>
        <time>1970-01-01T00:22:24.000Z</time>
      </trkpt>
      <trkpt lat="42.76723" lon="0.59838">
        <ele>1148.3</ele>
        <time>1970-01-01T00:22:25.000Z</time>
      </trkpt>
      <trkpt lat="42.76708" lon="0.59848">
        <ele>1147.9</ele>
        <time>1970-01-01T00:22:27.000Z</time>
      </trkpt>
      <trkpt lat="42.76701" lon="0.59852">
        <ele>1148.5</ele>
        <time>1970-01-01T00:22:28.000Z</time>
      </trkpt>
      <trkpt lat="42.76695" lon="0.59855">
        <ele>1148.9</ele>
        <time>1970-01-01T00:22:29.000Z</time>
      </trkpt>
      <trkpt lat="42.76686" lon="0.5986">
        <ele>1149.5</ele>
        <time>1970-01-01T00:22:31.000Z</time>
      </trkpt>
      <trkpt lat="42.76682" lon="0.59861">
        <ele>1149.9</ele>
        <time>1970-01-01T00:22:32.000Z</time>
      </trkpt>
      <trkpt lat="42.76677" lon="0.59859">
        <ele>1150.3</ele>
        <time>1970-01-01T00:22:34.000Z</time>
      </trkpt>
      <trkpt lat="42.76676" lon="0.59858">
        <ele>1150.4</ele>
        <time>1970-01-01T00:22:35.000Z</time>
      </trkpt>
      <trkpt lat="42.76674" lon="0.59857">
        <ele>1150.6</ele>
        <time>1970-01-01T00:22:36.000Z</time>
      </trkpt>
      <trkpt lat="42.76671" lon="0.59861">
        <ele>1151</ele>
        <time>1970-01-01T00:22:38.000Z</time>
      </trkpt>
      <trkpt lat="42.76668" lon="0.59864">
        <ele>1151.5</ele>
        <time>1970-01-01T00:22:40.000Z</time>
      </trkpt>
      <trkpt lat="42.76667" lon="0.59865">
        <ele>1151.6</ele>
        <time>1970-01-01T00:22:41.000Z</time>
      </trkpt>
      <trkpt lat="42.76665" lon="0.59866">
        <ele>1151.8</ele>
        <time>1970-01-01T00:22:42.000Z</time>
      </trkpt>
      <trkpt lat="42.76659" lon="0.59869">
        <ele>1152.6</ele>
        <time>1970-01-01T00:22:44.000Z</time>
      </trkpt>
      <trkpt lat="42.76657" lon="0.59872">
        <ele>1152.9</ele>
        <time>1970-01-01T00:22:45.000Z</time>
      </trkpt>
      <trkpt lat="42.76652" lon="0.59877">
        <ele>1153.6</ele>
        <time>1970-01-01T00:22:47.000Z</time>
      </trkpt>
      <trkpt lat="42.76648" lon="0.59881">
        <ele>1154.2</ele>
        <time>1970-01-01T00:22:48.000Z</time>
      </trkpt>
      <trkpt lat="42.76644" lon="0.59885">
        <ele>1154.8</ele>
        <time>1970-01-01T00:22:50.000Z</time>
      </trkpt>
      <trkpt lat="42.76641" lon="0.59888">
        <ele>1155.1</ele>
        <time>1970-01-01T00:22:51.000Z</time>
      </trkpt>
      <trkpt lat="42.76636" lon="0.59892">
        <ele>1155.9</ele>
        <time>1970-01-01T00:22:52.000Z</time>
      </trkpt>
      <trkpt lat="42.76631" lon="0.59897">
        <ele>1156.5</ele>
        <time>1970-01-01T00:22:54.000Z</time>
      </trkpt>
      <trkpt lat="42.76627" lon="0.599">
        <ele>1157</ele>
        <time>1970-01-01T00:22:55.000Z</time>
      </trkpt>
      <trkpt lat="42.76623" lon="0.59903">
        <ele>1157.6</ele>
        <time>1970-01-01T00:22:56.000Z</time>
      </trkpt>
      <trkpt lat="42.7662" lon="0.59905">
        <ele>1158</ele>
        <time>1970-01-01T00:22:58.000Z</time>
      </trkpt>
      <trkpt lat="42.76615" lon="0.59908">
        <ele>1158.7</ele>
        <time>1970-01-01T00:22:59.000Z</time>
      </trkpt>
      <trkpt lat="42.76612" lon="0.5991">
        <ele>1159.2</ele>
        <time>1970-01-01T00:23:01.000Z</time>
      </trkpt>
      <trkpt lat="42.7661" lon="0.59911">
        <ele>1159.6</ele>
        <time>1970-01-01T00:23:02.000Z</time>
      </trkpt>
      <trkpt lat="42.76607" lon="0.59914">
        <ele>1160.1</ele>
        <time>1970-01-01T00:23:04.000Z</time>
      </trkpt>
      <trkpt lat="42.76604" lon="0.59916">
        <ele>1160.5</ele>
        <time>1970-01-01T00:23:05.000Z</time>
      </trkpt>
      <trkpt lat="42.76602" lon="0.59919">
        <ele>1160.9</ele>
        <time>1970-01-01T00:23:06.000Z</time>
      </trkpt>
      <trkpt lat="42.76601" lon="0.5992">
        <ele>1161</ele>
        <time>1970-01-01T00:23:07.000Z</time>
      </trkpt>
      <trkpt lat="42.76599" lon="0.59923">
        <ele>1161.4</ele>
        <time>1970-01-01T00:23:09.000Z</time>
      </trkpt>
      <trkpt lat="42.76596" lon="0.59925">
        <ele>1161.9</ele>
        <time>1970-01-01T00:23:10.000Z</time>
      </trkpt>
      <trkpt lat="42.76593" lon="0.59928">
        <ele>1162.3</ele>
        <time>1970-01-01T00:23:12.000Z</time>
      </trkpt>
      <trkpt lat="42.76589" lon="0.5993">
        <ele>1162.8</ele>
        <time>1970-01-01T00:23:13.000Z</time>
      </trkpt>
      <trkpt lat="42.76586" lon="0.59932">
        <ele>1163.1</ele>
        <time>1970-01-01T00:23:14.000Z</time>
      </trkpt>
      <trkpt lat="42.76583" lon="0.59934">
        <ele>1163.5</ele>
        <time>1970-01-01T00:23:16.000Z</time>
      </trkpt>
      <trkpt lat="42.7658" lon="0.59936">
        <ele>1163.9</ele>
        <time>1970-01-01T00:23:17.000Z</time>
      </trkpt>
      <trkpt lat="42.76579" lon="0.59937">
        <ele>1164</ele>
        <time>1970-01-01T00:23:18.000Z</time>
      </trkpt>
      <trkpt lat="42.76578" lon="0.59939">
        <ele>1164.3</ele>
        <time>1970-01-01T00:23:19.000Z</time>
      </trkpt>
      <trkpt lat="42.76576" lon="0.59942">
        <ele>1164.6</ele>
        <time>1970-01-01T00:23:21.000Z</time>
      </trkpt>
      <trkpt lat="42.76573" lon="0.59944">
        <ele>1164.9</ele>
        <time>1970-01-01T00:23:22.000Z</time>
      </trkpt>
      <trkpt lat="42.76572" lon="0.59945">
        <ele>1165.1</ele>
        <time>1970-01-01T00:23:24.000Z</time>
      </trkpt>
      <trkpt lat="42.7657" lon="0.59946">
        <ele>1165.3</ele>
        <time>1970-01-01T00:23:25.000Z</time>
      </trkpt>
      <trkpt lat="42.76567" lon="0.59948">
        <ele>1165.6</ele>
        <time>1970-01-01T00:23:26.000Z</time>
      </trkpt>
      <trkpt lat="42.76565" lon="0.5995">
        <ele>1165.9</ele>
        <time>1970-01-01T00:23:27.000Z</time>
      </trkpt>
      <trkpt lat="42.76564" lon="0.59953">
        <ele>1166.1</ele>
        <time>1970-01-01T00:23:29.000Z</time>
      </trkpt>
      <trkpt lat="42.76564" lon="0.59954">
        <ele>1166.2</ele>
        <time>1970-01-01T00:23:30.000Z</time>
      </trkpt>
      <trkpt lat="42.76563" lon="0.59956">
        <ele>1166.4</ele>
        <time>1970-01-01T00:23:32.000Z</time>
      </trkpt>
      <trkpt lat="42.76564" lon="0.59957">
        <ele>1166.5</ele>
        <time>1970-01-01T00:23:34.000Z</time>
      </trkpt>
      <trkpt lat="42.76563" lon="0.59957">
        <ele>1166.5</ele>
        <time>1970-01-01T00:23:35.000Z</time>
      </trkpt>
      <trkpt lat="42.76562" lon="0.59957">
        <ele>1166.7</ele>
        <time>1970-01-01T00:23:37.000Z</time>
      </trkpt>
      <trkpt lat="42.76562" lon="0.59956">
        <ele>1166.7</ele>
        <time>1970-01-01T00:23:38.000Z</time>
      </trkpt>
      <trkpt lat="42.76562" lon="0.59954">
        <ele>1166.8</ele>
        <time>1970-01-01T00:23:39.000Z</time>
      </trkpt>
      <trkpt lat="42.76563" lon="0.59953">
        <ele>1166.9</ele>
        <time>1970-01-01T00:23:40.000Z</time>
      </trkpt>
      <trkpt lat="42.76565" lon="0.59952">
        <ele>1167.1</ele>
        <time>1970-01-01T00:23:42.000Z</time>
      </trkpt>
      <trkpt lat="42.76564" lon="0.59952">
        <ele>1167.1</ele>
        <time>1970-01-01T00:23:43.000Z</time>
      </trkpt>
      <trkpt lat="42.76564" lon="0.59952">
        <ele>1167.2</ele>
        <time>1970-01-01T00:23:45.000Z</time>
      </trkpt>
      <trkpt lat="42.76564" lon="0.59951">
        <ele>1167.2</ele>
        <time>1970-01-01T00:23:46.000Z</time>
      </trkpt>
      <trkpt lat="42.76564" lon="0.59951">
        <ele>1167.2</ele>
        <time>1970-01-01T00:23:48.000Z</time>
      </trkpt>
      <trkpt lat="42.76563" lon="0.59951">
        <ele>1167.2</ele>
        <time>1970-01-01T00:23:49.000Z</time>
      </trkpt>
      <trkpt lat="42.76563" lon="0.59951">
        <ele>1167.3</ele>
        <time>1970-01-01T00:23:50.000Z</time>
      </trkpt>
      <trkpt lat="42.76563" lon="0.59951">
        <ele>1167.3</ele>
        <time>1970-01-01T00:23:52.000Z</time>
      </trkpt>
      <trkpt lat="42.76562" lon="0.59951">
        <ele>1167.3</ele>
        <time>1970-01-01T00:23:53.000Z</time>
      </trkpt>
      <trkpt lat="42.76562" lon="0.59951">
        <ele>1167.3</ele>
        <time>1970-01-01T00:23:54.000Z</time>
      </trkpt>
      <trkpt lat="42.76562" lon="0.5995">
        <ele>1167.4</ele>
        <time>1970-01-01T00:23:56.000Z</time>
      </trkpt>
      <trkpt lat="42.76562" lon="0.5995">
        <ele>1167.4</ele>
        <time>1970-01-01T00:23:57.000Z</time>
      </trkpt>
      <trkpt lat="42.76561" lon="0.5995">
        <ele>1167.4</ele>
        <time>1970-01-01T00:23:59.000Z</time>
      </trkpt>
      <trkpt lat="42.76561" lon="0.5995">
        <ele>1167.4</ele>
        <time>1970-01-01T00:24:00.000Z</time>
      </trkpt>
      <trkpt lat="42.76561" lon="0.5995">
        <ele>1167.4</ele>
        <time>1970-01-01T00:24:01.000Z</time>
      </trkpt>
      <trkpt lat="42.7656" lon="0.59949">
        <ele>1167.5</ele>
        <time>1970-01-01T00:24:02.000Z</time>
      </trkpt>
      <trkpt lat="42.76559" lon="0.59948">
        <ele>1167.6</ele>
        <time>1970-01-01T00:24:04.000Z</time>
      </trkpt>
      <trkpt lat="42.76558" lon="0.59948">
        <ele>1167.6</ele>
        <time>1970-01-01T00:24:06.000Z</time>
      </trkpt>
      <trkpt lat="42.76558" lon="0.59948">
        <ele>1167.6</ele>
        <time>1970-01-01T00:24:07.000Z</time>
      </trkpt>
      <trkpt lat="42.76558" lon="0.59948">
        <ele>1167.6</ele>
        <time>1970-01-01T00:24:08.000Z</time>
      </trkpt>
      <trkpt lat="42.76558" lon="0.59948">
        <ele>1167.6</ele>
        <time>1970-01-01T00:24:10.000Z</time>
      </trkpt>
      <trkpt lat="42.76555" lon="0.59945">
        <ele>1167.8</ele>
        <time>1970-01-01T00:25:03.000Z</time>
      </trkpt>
      <trkpt lat="42.76554" lon="0.59946">
        <ele>1167.8</ele>
        <time>1970-01-01T00:25:04.000Z</time>
      </trkpt>
      <trkpt lat="42.76554" lon="0.59947">
        <ele>1167.9</ele>
        <time>1970-01-01T00:25:05.000Z</time>
      </trkpt>
      <trkpt lat="42.76554" lon="0.59951">
        <ele>1167.9</ele>
        <time>1970-01-01T00:25:07.000Z</time>
      </trkpt>
      <trkpt lat="42.76554" lon="0.59985">
        <ele>1164.3</ele>
        <time>1970-01-01T00:25:08.000Z</time>
      </trkpt>
      <trkpt lat="42.76555" lon="0.60004">
        <ele>1157.1</ele>
        <time>1970-01-01T00:25:09.000Z</time>
      </trkpt>
      <trkpt lat="42.76557" lon="0.6004">
        <ele>1139</ele>
        <time>1970-01-01T00:25:11.000Z</time>
      </trkpt>
      <trkpt lat="42.76557" lon="0.60055">
        <ele>1130.3</ele>
        <time>1970-01-01T00:25:12.000Z</time>
      </trkpt>
      <trkpt lat="42.76557" lon="0.60065">
        <ele>1124.9</ele>
        <time>1970-01-01T00:25:13.000Z</time>
      </trkpt>
      <trkpt lat="42.76561" lon="0.60068">
        <ele>1122</ele>
        <time>1970-01-01T00:25:15.000Z</time>
      </trkpt>
      <trkpt lat="42.76566" lon="0.60066">
        <ele>1118.6</ele>
        <time>1970-01-01T00:25:16.000Z</time>
      </trkpt>
      <trkpt lat="42.76572" lon="0.60059">
        <ele>1113.6</ele>
        <time>1970-01-01T00:25:17.000Z</time>
      </trkpt>
      <trkpt lat="42.76576" lon="0.60053">
        <ele>1118</ele>
        <time>1970-01-01T00:25:18.000Z</time>
      </trkpt>
      <trkpt lat="42.7658" lon="0.60046">
        <ele>1119.2</ele>
        <time>1970-01-01T00:25:19.000Z</time>
      </trkpt>
      <trkpt lat="42.76581" lon="0.60042">
        <ele>1119.9</ele>
        <time>1970-01-01T00:25:20.000Z</time>
      </trkpt>
      <trkpt lat="42.76579" lon="0.60043">
        <ele>1119.3</ele>
        <time>1970-01-01T00:25:21.000Z</time>
      </trkpt>
      <trkpt lat="42.76577" lon="0.60049">
        <ele>1118.2</ele>
        <time>1970-01-01T00:25:23.000Z</time>
      </trkpt>
      <trkpt lat="42.76577" lon="0.60067">
        <ele>1115.1</ele>
        <time>1970-01-01T00:25:25.000Z</time>
      </trkpt>
      <trkpt lat="42.76577" lon="0.60075">
        <ele>1113.4</ele>
        <time>1970-01-01T00:25:26.000Z</time>
      </trkpt>
      <trkpt lat="42.76575" lon="0.60093">
        <ele>1112.5</ele>
        <time>1970-01-01T00:25:28.000Z</time>
      </trkpt>
      <trkpt lat="42.76567" lon="0.60108">
        <ele>1111.6</ele>
        <time>1970-01-01T00:25:30.000Z</time>
      </trkpt>
      <trkpt lat="42.76559" lon="0.60115">
        <ele>1110.9</ele>
        <time>1970-01-01T00:25:31.000Z</time>
      </trkpt>
      <trkpt lat="42.7654" lon="0.60127">
        <ele>1109.5</ele>
        <time>1970-01-01T00:25:33.000Z</time>
      </trkpt>
      <trkpt lat="42.76529" lon="0.60134">
        <ele>1108.7</ele>
        <time>1970-01-01T00:25:34.000Z</time>
      </trkpt>
      <trkpt lat="42.76511" lon="0.60153">
        <ele>1107.2</ele>
        <time>1970-01-01T00:25:36.000Z</time>
      </trkpt>
      <trkpt lat="42.765" lon="0.60183">
        <ele>1105.9</ele>
        <time>1970-01-01T00:25:38.000Z</time>
      </trkpt>
      <trkpt lat="42.76493" lon="0.60215">
        <ele>1104.8</ele>
        <time>1970-01-01T00:25:40.000Z</time>
      </trkpt>
      <trkpt lat="42.7649" lon="0.60229">
        <ele>1104.4</ele>
        <time>1970-01-01T00:25:41.000Z</time>
      </trkpt>
      <trkpt lat="42.76486" lon="0.6024">
        <ele>1103.9</ele>
        <time>1970-01-01T00:25:42.000Z</time>
      </trkpt>
      <trkpt lat="42.76475" lon="0.60257">
        <ele>1102.9</ele>
        <time>1970-01-01T00:25:44.000Z</time>
      </trkpt>
      <trkpt lat="42.76469" lon="0.60268">
        <ele>1102.2</ele>
        <time>1970-01-01T00:25:45.000Z</time>
      </trkpt>
      <trkpt lat="42.76455" lon="0.60294">
        <ele>1101</ele>
        <time>1970-01-01T00:25:47.000Z</time>
      </trkpt>
      <trkpt lat="42.76449" lon="0.60308">
        <ele>1100.5</ele>
        <time>1970-01-01T00:25:48.000Z</time>
      </trkpt>
      <trkpt lat="42.76435" lon="0.60335">
        <ele>1099.7</ele>
        <time>1970-01-01T00:25:50.000Z</time>
      </trkpt>
      <trkpt lat="42.76418" lon="0.60348">
        <ele>1099.9</ele>
        <time>1970-01-01T00:25:52.000Z</time>
      </trkpt>
      <trkpt lat="42.76401" lon="0.60355">
        <ele>1100.3</ele>
        <time>1970-01-01T00:25:54.000Z</time>
      </trkpt>
      <trkpt lat="42.76395" lon="0.6036">
        <ele>1100.5</ele>
        <time>1970-01-01T00:25:55.000Z</time>
      </trkpt>
      <trkpt lat="42.7639" lon="0.60368">
        <ele>1100.7</ele>
        <time>1970-01-01T00:25:56.000Z</time>
      </trkpt>
      <trkpt lat="42.76386" lon="0.60376">
        <ele>1100.8</ele>
        <time>1970-01-01T00:25:57.000Z</time>
      </trkpt>
      <trkpt lat="42.76379" lon="0.60396">
        <ele>1101.2</ele>
        <time>1970-01-01T00:25:59.000Z</time>
      </trkpt>
      <trkpt lat="42.76374" lon="0.60405">
        <ele>1101.2</ele>
        <time>1970-01-01T00:26:00.000Z</time>
      </trkpt>
      <trkpt lat="42.76368" lon="0.60413">
        <ele>1101.2</ele>
        <time>1970-01-01T00:26:01.000Z</time>
      </trkpt>
      <trkpt lat="42.76359" lon="0.60417">
        <ele>1101</ele>
        <time>1970-01-01T00:26:02.000Z</time>
      </trkpt>
      <trkpt lat="42.76349" lon="0.60416">
        <ele>1100.8</ele>
        <time>1970-01-01T00:26:03.000Z</time>
      </trkpt>
      <trkpt lat="42.7634" lon="0.6041">
        <ele>1100.3</ele>
        <time>1970-01-01T00:26:04.000Z</time>
      </trkpt>
      <trkpt lat="42.76331" lon="0.604">
        <ele>1099.7</ele>
        <time>1970-01-01T00:26:05.000Z</time>
      </trkpt>
      <trkpt lat="42.76321" lon="0.60389">
        <ele>1098.9</ele>
        <time>1970-01-01T00:26:06.000Z</time>
      </trkpt>
      <trkpt lat="42.76312" lon="0.60379">
        <ele>1098.1</ele>
        <time>1970-01-01T00:26:07.000Z</time>
      </trkpt>
      <trkpt lat="42.7629" lon="0.60364">
        <ele>1096.6</ele>
        <time>1970-01-01T00:26:09.000Z</time>
      </trkpt>
      <trkpt lat="42.76279" lon="0.6036">
        <ele>1095.8</ele>
        <time>1970-01-01T00:26:10.000Z</time>
      </trkpt>
      <trkpt lat="42.7626" lon="0.6035">
        <ele>1094.2</ele>
        <time>1970-01-01T00:26:12.000Z</time>
      </trkpt>
      <trkpt lat="42.76246" lon="0.60331">
        <ele>1092.9</ele>
        <time>1970-01-01T00:26:14.000Z</time>
      </trkpt>
      <trkpt lat="42.76241" lon="0.60322">
        <ele>1092.4</ele>
        <time>1970-01-01T00:26:15.000Z</time>
      </trkpt>
      <trkpt lat="42.76224" lon="0.60315">
        <ele>1091.1</ele>
        <time>1970-01-01T00:26:18.000Z</time>
      </trkpt>
      <trkpt lat="42.7622" lon="0.6032">
        <ele>1090.7</ele>
        <time>1970-01-01T00:26:19.000Z</time>
      </trkpt>
      <trkpt lat="42.76216" lon="0.60325">
        <ele>1090.4</ele>
        <time>1970-01-01T00:26:20.000Z</time>
      </trkpt>
      <trkpt lat="42.76204" lon="0.60327">
        <ele>1089.5</ele>
        <time>1970-01-01T00:26:22.000Z</time>
      </trkpt>
      <trkpt lat="42.76194" lon="0.60324">
        <ele>1089</ele>
        <time>1970-01-01T00:26:23.000Z</time>
      </trkpt>
      <trkpt lat="42.76174" lon="0.60314">
        <ele>1087.9</ele>
        <time>1970-01-01T00:26:25.000Z</time>
      </trkpt>
      <trkpt lat="42.76163" lon="0.60314">
        <ele>1087.3</ele>
        <time>1970-01-01T00:26:26.000Z</time>
      </trkpt>
      <trkpt lat="42.76142" lon="0.60326">
        <ele>1085.9</ele>
        <time>1970-01-01T00:26:28.000Z</time>
      </trkpt>
      <trkpt lat="42.76132" lon="0.60334">
        <ele>1085.2</ele>
        <time>1970-01-01T00:26:29.000Z</time>
      </trkpt>
      <trkpt lat="42.76122" lon="0.60341">
        <ele>1084.6</ele>
        <time>1970-01-01T00:26:30.000Z</time>
      </trkpt>
      <trkpt lat="42.761" lon="0.60353">
        <ele>1083.3</ele>
        <time>1970-01-01T00:26:32.000Z</time>
      </trkpt>
      <trkpt lat="42.76088" lon="0.60355">
        <ele>1082.5</ele>
        <time>1970-01-01T00:26:33.000Z</time>
      </trkpt>
      <trkpt lat="42.76064" lon="0.60354">
        <ele>1081</ele>
        <time>1970-01-01T00:26:35.000Z</time>
      </trkpt>
      <trkpt lat="42.76039" lon="0.60357">
        <ele>1079.7</ele>
        <time>1970-01-01T00:26:37.000Z</time>
      </trkpt>
      <trkpt lat="42.76026" lon="0.60361">
        <ele>1079.1</ele>
        <time>1970-01-01T00:26:38.000Z</time>
      </trkpt>
      <trkpt lat="42.76014" lon="0.60365">
        <ele>1078.5</ele>
        <time>1970-01-01T00:26:39.000Z</time>
      </trkpt>
      <trkpt lat="42.76001" lon="0.60368">
        <ele>1077.8</ele>
        <time>1970-01-01T00:26:40.000Z</time>
      </trkpt>
      <trkpt lat="42.75978" lon="0.60372">
        <ele>1076.3</ele>
        <time>1970-01-01T00:26:42.000Z</time>
      </trkpt>
      <trkpt lat="42.75966" lon="0.60373">
        <ele>1075.9</ele>
        <time>1970-01-01T00:26:43.000Z</time>
      </trkpt>
      <trkpt lat="42.75944" lon="0.60376">
        <ele>1074.9</ele>
        <time>1970-01-01T00:26:45.000Z</time>
      </trkpt>
      <trkpt lat="42.75927" lon="0.60381">
        <ele>1074</ele>
        <time>1970-01-01T00:26:47.000Z</time>
      </trkpt>
      <trkpt lat="42.75921" lon="0.60385">
        <ele>1073.7</ele>
        <time>1970-01-01T00:26:49.000Z</time>
      </trkpt>
      <trkpt lat="42.75923" lon="0.60387">
        <ele>1073.5</ele>
        <time>1970-01-01T00:26:51.000Z</time>
      </trkpt>
      <trkpt lat="42.75924" lon="0.60388">
        <ele>1073.5</ele>
        <time>1970-01-01T00:26:52.000Z</time>
      </trkpt>
      <trkpt lat="42.75924" lon="0.60388">
        <ele>1073.5</ele>
        <time>1970-01-01T00:26:54.000Z</time>
      </trkpt>
      <trkpt lat="42.75924" lon="0.60389">
        <ele>1073.5</ele>
        <time>1970-01-01T00:26:55.000Z</time>
      </trkpt>
      <trkpt lat="42.75926" lon="0.60387">
        <ele>1073.3</ele>
        <time>1970-01-01T00:26:57.000Z</time>
      </trkpt>
      <trkpt lat="42.75927" lon="0.60383">
        <ele>1073.2</ele>
        <time>1970-01-01T00:26:58.000Z</time>
      </trkpt>
      <trkpt lat="42.75927" lon="0.60382">
        <ele>1073.2</ele>
        <time>1970-01-01T00:26:59.000Z</time>
      </trkpt>
      <trkpt lat="42.75927" lon="0.60381">
        <ele>1073.1</ele>
        <time>1970-01-01T00:27:01.000Z</time>
      </trkpt>
      <trkpt lat="42.75927" lon="0.60381">
        <ele>1073.1</ele>
        <time>1970-01-01T00:27:02.000Z</time>
      </trkpt>
      <trkpt lat="42.75927" lon="0.60382">
        <ele>1073.1</ele>
        <time>1970-01-01T00:27:03.000Z</time>
      </trkpt>
      <trkpt lat="42.75927" lon="0.60382">
        <ele>1073.1</ele>
        <time>1970-01-01T00:27:04.000Z</time>
      </trkpt>
      <trkpt lat="42.75928" lon="0.60382">
        <ele>1073.1</ele>
        <time>1970-01-01T00:27:05.000Z</time>
      </trkpt>
      <trkpt lat="42.75928" lon="0.60383">
        <ele>1073</ele>
        <time>1970-01-01T00:27:07.000Z</time>
      </trkpt>
      <trkpt lat="42.75928" lon="0.60387">
        <ele>1072.8</ele>
        <time>1970-01-01T00:27:09.000Z</time>
      </trkpt>
      <trkpt lat="42.75926" lon="0.6039">
        <ele>1072.7</ele>
        <time>1970-01-01T00:27:10.000Z</time>
      </trkpt>
      <trkpt lat="42.75921" lon="0.60395">
        <ele>1072.3</ele>
        <time>1970-01-01T00:27:12.000Z</time>
      </trkpt>
      <trkpt lat="42.75916" lon="0.604">
        <ele>1071.8</ele>
        <time>1970-01-01T00:27:14.000Z</time>
      </trkpt>
      <trkpt lat="42.75912" lon="0.60402">
        <ele>1071.5</ele>
        <time>1970-01-01T00:27:15.000Z</time>
      </trkpt>
      <trkpt lat="42.75909" lon="0.60404">
        <ele>1071.3</ele>
        <time>1970-01-01T00:27:16.000Z</time>
      </trkpt>
      <trkpt lat="42.75898" lon="0.60413">
        <ele>1070.6</ele>
        <time>1970-01-01T00:27:18.000Z</time>
      </trkpt>
      <trkpt lat="42.75889" lon="0.60422">
        <ele>1069.9</ele>
        <time>1970-01-01T00:27:20.000Z</time>
      </trkpt>
      <trkpt lat="42.75897" lon="0.60416">
        <ele>1069.2</ele>
        <time>1970-01-01T00:27:21.000Z</time>
      </trkpt>
      <trkpt lat="42.75901" lon="0.6041">
        <ele>1068.9</ele>
        <time>1970-01-01T00:27:23.000Z</time>
      </trkpt>
      <trkpt lat="42.75898" lon="0.60412">
        <ele>1068.6</ele>
        <time>1970-01-01T00:27:24.000Z</time>
      </trkpt>
      <trkpt lat="42.75893" lon="0.60415">
        <ele>1068.3</ele>
        <time>1970-01-01T00:27:25.000Z</time>
      </trkpt>
      <trkpt lat="42.75884" lon="0.60421">
        <ele>1067.8</ele>
        <time>1970-01-01T00:27:27.000Z</time>
      </trkpt>
      <trkpt lat="42.75881" lon="0.60422">
        <ele>1067.6</ele>
        <time>1970-01-01T00:27:28.000Z</time>
      </trkpt>
      <trkpt lat="42.75879" lon="0.60422">
        <ele>1067.5</ele>
        <time>1970-01-01T00:27:29.000Z</time>
      </trkpt>
      <trkpt lat="42.75876" lon="0.60426">
        <ele>1067.3</ele>
        <time>1970-01-01T00:27:31.000Z</time>
      </trkpt>
      <trkpt lat="42.75876" lon="0.60427">
        <ele>1067.2</ele>
        <time>1970-01-01T00:27:32.000Z</time>
      </trkpt>
      <trkpt lat="42.75876" lon="0.60428">
        <ele>1067.2</ele>
        <time>1970-01-01T00:27:34.000Z</time>
      </trkpt>
      <trkpt lat="42.75876" lon="0.6043">
        <ele>1063.7</ele>
        <time>1970-01-01T00:27:36.000Z</time>
      </trkpt>
      <trkpt lat="42.75876" lon="0.60431">
        <ele>1063.7</ele>
        <time>1970-01-01T00:27:38.000Z</time>
      </trkpt>
      <trkpt lat="42.75876" lon="0.6043">
        <ele>1063.7</ele>
        <time>1970-01-01T00:27:39.000Z</time>
      </trkpt>
      <trkpt lat="42.75876" lon="0.6043">
        <ele>1063.7</ele>
        <time>1970-01-01T00:27:41.000Z</time>
      </trkpt>
      <trkpt lat="42.75875" lon="0.6043">
        <ele>1063.7</ele>
        <time>1970-01-01T00:27:43.000Z</time>
      </trkpt>
      <trkpt lat="42.75875" lon="0.6043">
        <ele>1063.7</ele>
        <time>1970-01-01T00:27:44.000Z</time>
      </trkpt>
      <trkpt lat="42.75874" lon="0.6043">
        <ele>1063.7</ele>
        <time>1970-01-01T00:27:45.000Z</time>
      </trkpt>
      <trkpt lat="42.75874" lon="0.60431">
        <ele>1063.7</ele>
        <time>1970-01-01T00:27:47.000Z</time>
      </trkpt>
      <trkpt lat="42.75873" lon="0.60432">
        <ele>1063.7</ele>
        <time>1970-01-01T00:27:49.000Z</time>
      </trkpt>
      <trkpt lat="42.75871" lon="0.60432">
        <ele>1063.7</ele>
        <time>1970-01-01T00:27:51.000Z</time>
      </trkpt>
      <trkpt lat="42.75869" lon="0.60433">
        <ele>1063.7</ele>
        <time>1970-01-01T00:27:53.000Z</time>
      </trkpt>
      <trkpt lat="42.75868" lon="0.60433">
        <ele>1063.7</ele>
        <time>1970-01-01T00:27:54.000Z</time>
      </trkpt>
      <trkpt lat="42.75868" lon="0.60433">
        <ele>1063.7</ele>
        <time>1970-01-01T00:27:55.000Z</time>
      </trkpt>
      <trkpt lat="42.75868" lon="0.60434">
        <ele>1063.7</ele>
        <time>1970-01-01T00:27:56.000Z</time>
      </trkpt>
      <trkpt lat="42.75867" lon="0.60435">
        <ele>1063.7</ele>
        <time>1970-01-01T00:27:58.000Z</time>
      </trkpt>
      <trkpt lat="42.75866" lon="0.60435">
        <ele>1058.2</ele>
        <time>1970-01-01T00:27:59.000Z</time>
      </trkpt>
      <trkpt lat="42.75861" lon="0.6044">
        <ele>1057.1</ele>
        <time>1970-01-01T00:28:01.000Z</time>
      </trkpt>
      <trkpt lat="42.75864" lon="0.60444">
        <ele>1056.5</ele>
        <time>1970-01-01T00:28:03.000Z</time>
      </trkpt>
      <trkpt lat="42.75865" lon="0.60445">
        <ele>1056.3</ele>
        <time>1970-01-01T00:28:04.000Z</time>
      </trkpt>
      <trkpt lat="42.75867" lon="0.60445">
        <ele>1056.2</ele>
        <time>1970-01-01T00:28:05.000Z</time>
      </trkpt>
      <trkpt lat="42.75868" lon="0.60446">
        <ele>1056.1</ele>
        <time>1970-01-01T00:28:06.000Z</time>
      </trkpt>
      <trkpt lat="42.75881" lon="0.60435">
        <ele>1055.1</ele>
        <time>1970-01-01T00:28:08.000Z</time>
      </trkpt>
      <trkpt lat="42.75887" lon="0.60429">
        <ele>1054.8</ele>
        <time>1970-01-01T00:28:09.000Z</time>
      </trkpt>
      <trkpt lat="42.75896" lon="0.60419">
        <ele>1054.1</ele>
        <time>1970-01-01T00:28:11.000Z</time>
      </trkpt>
      <trkpt lat="42.75899" lon="0.60414">
        <ele>1053.8</ele>
        <time>1970-01-01T00:28:12.000Z</time>
      </trkpt>
      <trkpt lat="42.75905" lon="0.60414">
        <ele>1053.1</ele>
        <time>1970-01-01T00:28:14.000Z</time>
      </trkpt>
      <trkpt lat="42.75909" lon="0.60414">
        <ele>1052.6</ele>
        <time>1970-01-01T00:28:15.000Z</time>
      </trkpt>
      <trkpt lat="42.75914" lon="0.60415">
        <ele>1052</ele>
        <time>1970-01-01T00:28:16.000Z</time>
      </trkpt>
      <trkpt lat="42.75921" lon="0.60417">
        <ele>1050.9</ele>
        <time>1970-01-01T00:28:17.000Z</time>
      </trkpt>
      <trkpt lat="42.75928" lon="0.60418">
        <ele>1049.9</ele>
        <time>1970-01-01T00:28:18.000Z</time>
      </trkpt>
      <trkpt lat="42.75942" lon="0.60421">
        <ele>1047.4</ele>
        <time>1970-01-01T00:28:20.000Z</time>
      </trkpt>
      <trkpt lat="42.75956" lon="0.60426">
        <ele>1044.3</ele>
        <time>1970-01-01T00:28:22.000Z</time>
      </trkpt>
      <trkpt lat="42.75965" lon="0.60432">
        <ele>1042.2</ele>
        <time>1970-01-01T00:28:23.000Z</time>
      </trkpt>
      <trkpt lat="42.75982" lon="0.60442">
        <ele>1038.5</ele>
        <time>1970-01-01T00:28:25.000Z</time>
      </trkpt>
      <trkpt lat="42.75998" lon="0.60448">
        <ele>1035.3</ele>
        <time>1970-01-01T00:28:27.000Z</time>
      </trkpt>
      <trkpt lat="42.76005" lon="0.60448">
        <ele>1033.7</ele>
        <time>1970-01-01T00:28:28.000Z</time>
      </trkpt>
      <trkpt lat="42.76019" lon="0.60451">
        <ele>1030.5</ele>
        <time>1970-01-01T00:28:30.000Z</time>
      </trkpt>
      <trkpt lat="42.76024" lon="0.60453">
        <ele>1029.1</ele>
        <time>1970-01-01T00:28:31.000Z</time>
      </trkpt>
      <trkpt lat="42.76028" lon="0.60455">
        <ele>1028.1</ele>
        <time>1970-01-01T00:28:32.000Z</time>
      </trkpt>
      <trkpt lat="42.76033" lon="0.60456">
        <ele>1027</ele>
        <time>1970-01-01T00:28:33.000Z</time>
      </trkpt>
      <trkpt lat="42.76036" lon="0.60456">
        <ele>1026.1</ele>
        <time>1970-01-01T00:28:34.000Z</time>
      </trkpt>
      <trkpt lat="42.7604" lon="0.60456">
        <ele>1025</ele>
        <time>1970-01-01T00:28:36.000Z</time>
      </trkpt>
      <trkpt lat="42.76042" lon="0.60457">
        <ele>1024.4</ele>
        <time>1970-01-01T00:28:38.000Z</time>
      </trkpt>
      <trkpt lat="42.76042" lon="0.60457">
        <ele>1024.4</ele>
        <time>1970-01-01T00:28:40.000Z</time>
      </trkpt>
      <trkpt lat="42.76042" lon="0.60457">
        <ele>1024.3</ele>
        <time>1970-01-01T00:28:42.000Z</time>
      </trkpt>
      <trkpt lat="42.76042" lon="0.60455">
        <ele>1024</ele>
        <time>1970-01-01T00:28:43.000Z</time>
      </trkpt>
      <trkpt lat="42.7604" lon="0.60457">
        <ele>1023.6</ele>
        <time>1970-01-01T00:28:44.000Z</time>
      </trkpt>
      <trkpt lat="42.7604" lon="0.60458">
        <ele>1023.2</ele>
        <time>1970-01-01T00:28:46.000Z</time>
      </trkpt>
      <trkpt lat="42.76049" lon="0.60467">
        <ele>1020.1</ele>
        <time>1970-01-01T00:28:48.000Z</time>
      </trkpt>
      <trkpt lat="42.76051" lon="0.60467">
        <ele>1019.7</ele>
        <time>1970-01-01T00:28:50.000Z</time>
      </trkpt>
      <trkpt lat="42.76051" lon="0.60466">
        <ele>1019.5</ele>
        <time>1970-01-01T00:28:51.000Z</time>
      </trkpt>
      <trkpt lat="42.7606" lon="0.60472">
        <ele>1016.7</ele>
        <time>1970-01-01T00:28:53.000Z</time>
      </trkpt>
      <trkpt lat="42.76067" lon="0.60475">
        <ele>1014.9</ele>
        <time>1970-01-01T00:28:54.000Z</time>
      </trkpt>
      <trkpt lat="42.76074" lon="0.60478">
        <ele>1013</ele>
        <time>1970-01-01T00:28:55.000Z</time>
      </trkpt>
      <trkpt lat="42.76088" lon="0.60483">
        <ele>1008.9</ele>
        <time>1970-01-01T00:28:57.000Z</time>
      </trkpt>
      <trkpt lat="42.76095" lon="0.60485">
        <ele>1006.6</ele>
        <time>1970-01-01T00:28:58.000Z</time>
      </trkpt>
      <trkpt lat="42.76109" lon="0.60488">
        <ele>1002.6</ele>
        <time>1970-01-01T00:29:00.000Z</time>
      </trkpt>
      <trkpt lat="42.76115" lon="0.60491">
        <ele>1000.9</ele>
        <time>1970-01-01T00:29:01.000Z</time>
      </trkpt>
      <trkpt lat="42.7612" lon="0.60493">
        <ele>999.6</ele>
        <time>1970-01-01T00:29:02.000Z</time>
      </trkpt>
      <trkpt lat="42.76123" lon="0.60491">
        <ele>998.8</ele>
        <time>1970-01-01T00:29:04.000Z</time>
      </trkpt>
      <trkpt lat="42.76123" lon="0.60487">
        <ele>998</ele>
        <time>1970-01-01T00:29:06.000Z</time>
      </trkpt>
      <trkpt lat="42.76128" lon="0.60491">
        <ele>996.7</ele>
        <time>1970-01-01T00:29:08.000Z</time>
      </trkpt>
      <trkpt lat="42.76133" lon="0.60504">
        <ele>994.1</ele>
        <time>1970-01-01T00:29:09.000Z</time>
      </trkpt>
      <trkpt lat="42.76139" lon="0.60514">
        <ele>992.3</ele>
        <time>1970-01-01T00:29:10.000Z</time>
      </trkpt>
      <trkpt lat="42.7615" lon="0.6054">
        <ele>988.5</ele>
        <time>1970-01-01T00:29:12.000Z</time>
      </trkpt>
      <trkpt lat="42.76157" lon="0.60551">
        <ele>986.8</ele>
        <time>1970-01-01T00:29:13.000Z</time>
      </trkpt>
      <trkpt lat="42.76174" lon="0.60567">
        <ele>983</ele>
        <time>1970-01-01T00:29:15.000Z</time>
      </trkpt>
      <trkpt lat="42.76195" lon="0.60582">
        <ele>978.4</ele>
        <time>1970-01-01T00:29:17.000Z</time>
      </trkpt>
      <trkpt lat="42.76205" lon="0.60588">
        <ele>976.5</ele>
        <time>1970-01-01T00:29:18.000Z</time>
      </trkpt>
      <trkpt lat="42.76214" lon="0.60595">
        <ele>974.7</ele>
        <time>1970-01-01T00:29:19.000Z</time>
      </trkpt>
      <trkpt lat="42.76222" lon="0.60603">
        <ele>973.1</ele>
        <time>1970-01-01T00:29:20.000Z</time>
      </trkpt>
      <trkpt lat="42.7624" lon="0.60618">
        <ele>969.5</ele>
        <time>1970-01-01T00:29:22.000Z</time>
      </trkpt>
      <trkpt lat="42.76249" lon="0.60625">
        <ele>967.2</ele>
        <time>1970-01-01T00:29:23.000Z</time>
      </trkpt>
      <trkpt lat="42.7626" lon="0.60633">
        <ele>964.8</ele>
        <time>1970-01-01T00:29:24.000Z</time>
      </trkpt>
      <trkpt lat="42.7627" lon="0.60641">
        <ele>962.4</ele>
        <time>1970-01-01T00:29:25.000Z</time>
      </trkpt>
      <trkpt lat="42.76279" lon="0.60649">
        <ele>960.3</ele>
        <time>1970-01-01T00:29:26.000Z</time>
      </trkpt>
      <trkpt lat="42.76291" lon="0.60668">
        <ele>957.2</ele>
        <time>1970-01-01T00:29:28.000Z</time>
      </trkpt>
      <trkpt lat="42.76294" lon="0.60676">
        <ele>956.2</ele>
        <time>1970-01-01T00:29:29.000Z</time>
      </trkpt>
      <trkpt lat="42.76296" lon="0.60677">
        <ele>955.8</ele>
        <time>1970-01-01T00:29:31.000Z</time>
      </trkpt>
      <trkpt lat="42.76306" lon="0.60669">
        <ele>953.5</ele>
        <time>1970-01-01T00:29:33.000Z</time>
      </trkpt>
      <trkpt lat="42.76318" lon="0.60665">
        <ele>951.3</ele>
        <time>1970-01-01T00:29:35.000Z</time>
      </trkpt>
      <trkpt lat="42.76323" lon="0.60668">
        <ele>950.4</ele>
        <time>1970-01-01T00:29:36.000Z</time>
      </trkpt>
      <trkpt lat="42.76326" lon="0.60671">
        <ele>949.7</ele>
        <time>1970-01-01T00:29:37.000Z</time>
      </trkpt>
      <trkpt lat="42.76336" lon="0.60674">
        <ele>947.8</ele>
        <time>1970-01-01T00:29:39.000Z</time>
      </trkpt>
      <trkpt lat="42.76343" lon="0.60678">
        <ele>946.2</ele>
        <time>1970-01-01T00:29:40.000Z</time>
      </trkpt>
      <trkpt lat="42.76347" lon="0.6068">
        <ele>945.5</ele>
        <time>1970-01-01T00:29:41.000Z</time>
      </trkpt>
      <trkpt lat="42.76346" lon="0.60674">
        <ele>944.6</ele>
        <time>1970-01-01T00:29:43.000Z</time>
      </trkpt>
      <trkpt lat="42.76345" lon="0.60678">
        <ele>944.1</ele>
        <time>1970-01-01T00:29:44.000Z</time>
      </trkpt>
      <trkpt lat="42.76346" lon="0.60681">
        <ele>943.5</ele>
        <time>1970-01-01T00:29:45.000Z</time>
      </trkpt>
      <trkpt lat="42.76349" lon="0.60687">
        <ele>942.6</ele>
        <time>1970-01-01T00:29:46.000Z</time>
      </trkpt>
      <trkpt lat="42.76332" lon="0.60698">
        <ele>939</ele>
        <time>1970-01-01T00:29:48.000Z</time>
      </trkpt>
      <trkpt lat="42.76317" lon="0.60709">
        <ele>935.9</ele>
        <time>1970-01-01T00:29:50.000Z</time>
      </trkpt>
      <trkpt lat="42.76314" lon="0.60709">
        <ele>935.3</ele>
        <time>1970-01-01T00:29:51.000Z</time>
      </trkpt>
      <trkpt lat="42.76323" lon="0.60701">
        <ele>933.4</ele>
        <time>1970-01-01T00:29:53.000Z</time>
      </trkpt>
      <trkpt lat="42.76327" lon="0.60694">
        <ele>932.1</ele>
        <time>1970-01-01T00:29:54.000Z</time>
      </trkpt>
      <trkpt lat="42.76329" lon="0.60699">
        <ele>931.4</ele>
        <time>1970-01-01T00:29:55.000Z</time>
      </trkpt>
      <trkpt lat="42.76334" lon="0.60699">
        <ele>930.3</ele>
        <time>1970-01-01T00:29:57.000Z</time>
      </trkpt>
      <trkpt lat="42.76338" lon="0.60699">
        <ele>929.5</ele>
        <time>1970-01-01T00:29:58.000Z</time>
      </trkpt>
      <trkpt lat="42.76333" lon="0.60707">
        <ele>928.2</ele>
        <time>1970-01-01T00:29:59.000Z</time>
      </trkpt>
      <trkpt lat="42.7633" lon="0.60714">
        <ele>927</ele>
        <time>1970-01-01T00:30:00.000Z</time>
      </trkpt>
      <trkpt lat="42.76326" lon="0.60721">
        <ele>925.8</ele>
        <time>1970-01-01T00:30:02.000Z</time>
      </trkpt>
      <trkpt lat="42.76322" lon="0.60722">
        <ele>925.1</ele>
        <time>1970-01-01T00:30:03.000Z</time>
      </trkpt>
      <trkpt lat="42.76325" lon="0.60717">
        <ele>924.3</ele>
        <time>1970-01-01T00:30:04.000Z</time>
      </trkpt>
      <trkpt lat="42.76326" lon="0.60714">
        <ele>923.8</ele>
        <time>1970-01-01T00:30:05.000Z</time>
      </trkpt>
      <trkpt lat="42.7632" lon="0.60726">
        <ele>921.8</ele>
        <time>1970-01-01T00:30:07.000Z</time>
      </trkpt>
      <trkpt lat="42.76335" lon="0.60731">
        <ele>918.9</ele>
        <time>1970-01-01T00:30:09.000Z</time>
      </trkpt>
      <trkpt lat="42.76343" lon="0.60734">
        <ele>917</ele>
        <time>1970-01-01T00:30:10.000Z</time>
      </trkpt>
      <trkpt lat="42.76361" lon="0.60743">
        <ele>912.6</ele>
        <time>1970-01-01T00:30:12.000Z</time>
      </trkpt>
      <trkpt lat="42.76377" lon="0.60756">
        <ele>907.8</ele>
        <time>1970-01-01T00:30:14.000Z</time>
      </trkpt>
      <trkpt lat="42.76382" lon="0.60763">
        <ele>905.8</ele>
        <time>1970-01-01T00:30:16.000Z</time>
      </trkpt>
      <trkpt lat="42.76374" lon="0.60762">
        <ele>903.4</ele>
        <time>1970-01-01T00:30:18.000Z</time>
      </trkpt>
      <trkpt lat="42.76368" lon="0.60764">
        <ele>901.2</ele>
        <time>1970-01-01T00:30:19.000Z</time>
      </trkpt>
      <trkpt lat="42.7635" lon="0.60771">
        <ele>895</ele>
        <time>1970-01-01T00:30:21.000Z</time>
      </trkpt>
      <trkpt lat="42.76342" lon="0.60774">
        <ele>892.5</ele>
        <time>1970-01-01T00:30:22.000Z</time>
      </trkpt>
      <trkpt lat="42.76335" lon="0.60776">
        <ele>890.4</ele>
        <time>1970-01-01T00:30:23.000Z</time>
      </trkpt>
      <trkpt lat="42.76327" lon="0.6078">
        <ele>888</ele>
        <time>1970-01-01T00:30:24.000Z</time>
      </trkpt>
      <trkpt lat="42.76321" lon="0.60785">
        <ele>886.1</ele>
        <time>1970-01-01T00:30:25.000Z</time>
      </trkpt>
      <trkpt lat="42.76318" lon="0.60788">
        <ele>885.1</ele>
        <time>1970-01-01T00:30:27.000Z</time>
      </trkpt>
      <trkpt lat="42.7632" lon="0.60787">
        <ele>884.5</ele>
        <time>1970-01-01T00:30:28.000Z</time>
      </trkpt>
      <trkpt lat="42.76322" lon="0.60787">
        <ele>884.1</ele>
        <time>1970-01-01T00:30:29.000Z</time>
      </trkpt>
      <trkpt lat="42.76334" lon="0.60787">
        <ele>881.3</ele>
        <time>1970-01-01T00:30:30.000Z</time>
      </trkpt>
      <trkpt lat="42.76342" lon="0.60787">
        <ele>879.6</ele>
        <time>1970-01-01T00:30:31.000Z</time>
      </trkpt>
      <trkpt lat="42.76352" lon="0.60789">
        <ele>877.6</ele>
        <time>1970-01-01T00:30:32.000Z</time>
      </trkpt>
      <trkpt lat="42.76373" lon="0.60798">
        <ele>872.2</ele>
        <time>1970-01-01T00:30:34.000Z</time>
      </trkpt>
      <trkpt lat="42.76384" lon="0.60804">
        <ele>865.4</ele>
        <time>1970-01-01T00:30:35.000Z</time>
      </trkpt>
      <trkpt lat="42.76396" lon="0.6081">
        <ele>861</ele>
        <time>1970-01-01T00:30:36.000Z</time>
      </trkpt>
      <trkpt lat="42.76416" lon="0.60821">
        <ele>847.2</ele>
        <time>1970-01-01T00:30:38.000Z</time>
      </trkpt>
      <trkpt lat="42.76424" lon="0.60826">
        <ele>842.9</ele>
        <time>1970-01-01T00:30:39.000Z</time>
      </trkpt>
      <trkpt lat="42.76438" lon="0.60834">
        <ele>835.5</ele>
        <time>1970-01-01T00:30:41.000Z</time>
      </trkpt>
      <trkpt lat="42.76445" lon="0.60838">
        <ele>832.2</ele>
        <time>1970-01-01T00:30:42.000Z</time>
      </trkpt>
      <trkpt lat="42.76452" lon="0.60841">
        <ele>829.2</ele>
        <time>1970-01-01T00:30:43.000Z</time>
      </trkpt>
      <trkpt lat="42.76459" lon="0.60844">
        <ele>830.1</ele>
        <time>1970-01-01T00:30:44.000Z</time>
      </trkpt>
      <trkpt lat="42.76476" lon="0.60853">
        <ele>823.9</ele>
        <time>1970-01-01T00:30:46.000Z</time>
      </trkpt>
      <trkpt lat="42.76485" lon="0.60858">
        <ele>820.3</ele>
        <time>1970-01-01T00:30:47.000Z</time>
      </trkpt>
      <trkpt lat="42.76496" lon="0.60863">
        <ele>813.8</ele>
        <time>1970-01-01T00:30:48.000Z</time>
      </trkpt>
      <trkpt lat="42.7652" lon="0.60872">
        <ele>802.5</ele>
        <time>1970-01-01T00:30:50.000Z</time>
      </trkpt>
      <trkpt lat="42.76532" lon="0.60874">
        <ele>798.5</ele>
        <time>1970-01-01T00:30:51.000Z</time>
      </trkpt>
      <trkpt lat="42.76542" lon="0.60877">
        <ele>790.7</ele>
        <time>1970-01-01T00:30:52.000Z</time>
      </trkpt>
      <trkpt lat="42.76553" lon="0.60879">
        <ele>785.6</ele>
        <time>1970-01-01T00:30:53.000Z</time>
      </trkpt>
      <trkpt lat="42.76572" lon="0.60877">
        <ele>776</ele>
        <time>1970-01-01T00:30:55.000Z</time>
      </trkpt>
      <trkpt lat="42.76581" lon="0.60872">
        <ele>773.2</ele>
        <time>1970-01-01T00:30:56.000Z</time>
      </trkpt>
      <trkpt lat="42.7659" lon="0.60864">
        <ele>772.3</ele>
        <time>1970-01-01T00:30:57.000Z</time>
      </trkpt>
      <trkpt lat="42.766" lon="0.60843">
        <ele>770.3</ele>
        <time>1970-01-01T00:30:59.000Z</time>
      </trkpt>
      <trkpt lat="42.76605" lon="0.6083">
        <ele>769.1</ele>
        <time>1970-01-01T00:31:00.000Z</time>
      </trkpt>
      <trkpt lat="42.76611" lon="0.60818">
        <ele>767.8</ele>
        <time>1970-01-01T00:31:01.000Z</time>
      </trkpt>
      <trkpt lat="42.76624" lon="0.60798">
        <ele>765.6</ele>
        <time>1970-01-01T00:31:03.000Z</time>
      </trkpt>
      <trkpt lat="42.76636" lon="0.60787">
        <ele>764</ele>
        <time>1970-01-01T00:31:05.000Z</time>
      </trkpt>
      <trkpt lat="42.76647" lon="0.60777">
        <ele>762.6</ele>
        <time>1970-01-01T00:31:07.000Z</time>
      </trkpt>
      <trkpt lat="42.76652" lon="0.60772">
        <ele>761.9</ele>
        <time>1970-01-01T00:31:08.000Z</time>
      </trkpt>
      <trkpt lat="42.76659" lon="0.60772">
        <ele>761.2</ele>
        <time>1970-01-01T00:31:10.000Z</time>
      </trkpt>
      <trkpt lat="42.76664" lon="0.60773">
        <ele>760.7</ele>
        <time>1970-01-01T00:31:12.000Z</time>
      </trkpt>
      <trkpt lat="42.76666" lon="0.60772">
        <ele>760.4</ele>
        <time>1970-01-01T00:31:13.000Z</time>
      </trkpt>
      <trkpt lat="42.76674" lon="0.60762">
        <ele>759.3</ele>
        <time>1970-01-01T00:31:15.000Z</time>
      </trkpt>
      <trkpt lat="42.76681" lon="0.60752">
        <ele>758.1</ele>
        <time>1970-01-01T00:31:17.000Z</time>
      </trkpt>
      <trkpt lat="42.76683" lon="0.60747">
        <ele>757.7</ele>
        <time>1970-01-01T00:31:18.000Z</time>
      </trkpt>
      <trkpt lat="42.76688" lon="0.60743">
        <ele>757</ele>
        <time>1970-01-01T00:31:19.000Z</time>
      </trkpt>
      <trkpt lat="42.76689" lon="0.6074">
        <ele>756.8</ele>
        <time>1970-01-01T00:31:20.000Z</time>
      </trkpt>
      <trkpt lat="42.76688" lon="0.60742">
        <ele>756.6</ele>
        <time>1970-01-01T00:31:21.000Z</time>
      </trkpt>
      <trkpt lat="42.76687" lon="0.60744">
        <ele>756.4</ele>
        <time>1970-01-01T00:31:23.000Z</time>
      </trkpt>
      <trkpt lat="42.76687" lon="0.60745">
        <ele>756.3</ele>
        <time>1970-01-01T00:31:25.000Z</time>
      </trkpt>
      <trkpt lat="42.76687" lon="0.60745">
        <ele>756.3</ele>
        <time>1970-01-01T00:31:26.000Z</time>
      </trkpt>
      <trkpt lat="42.76688" lon="0.60744">
        <ele>756.1</ele>
        <time>1970-01-01T00:31:27.000Z</time>
      </trkpt>
      <trkpt lat="42.76689" lon="0.60743">
        <ele>756</ele>
        <time>1970-01-01T00:31:28.000Z</time>
      </trkpt>
      <trkpt lat="42.7669" lon="0.60743">
        <ele>755.9</ele>
        <time>1970-01-01T00:31:30.000Z</time>
      </trkpt>
      <trkpt lat="42.76691" lon="0.60743">
        <ele>755.8</ele>
        <time>1970-01-01T00:31:31.000Z</time>
      </trkpt>
      <trkpt lat="42.76691" lon="0.60743">
        <ele>755.8</ele>
        <time>1970-01-01T00:31:32.000Z</time>
      </trkpt>
      <trkpt lat="42.76691" lon="0.60744">
        <ele>755.8</ele>
        <time>1970-01-01T00:31:33.000Z</time>
      </trkpt>
      <trkpt lat="42.76691" lon="0.60744">
        <ele>755.7</ele>
        <time>1970-01-01T00:31:35.000Z</time>
      </trkpt>
      <trkpt lat="42.76692" lon="0.60744">
        <ele>755.7</ele>
        <time>1970-01-01T00:31:37.000Z</time>
      </trkpt>
      <trkpt lat="42.76692" lon="0.60743">
        <ele>755.7</ele>
        <time>1970-01-01T00:31:39.000Z</time>
      </trkpt>
      <trkpt lat="42.76705" lon="0.60722">
        <ele>753.5</ele>
        <time>1970-01-01T00:32:19.000Z</time>
      </trkpt>
      <trkpt lat="42.76707" lon="0.60717">
        <ele>753</ele>
        <time>1970-01-01T00:32:20.000Z</time>
      </trkpt>
      <trkpt lat="42.76709" lon="0.60712">
        <ele>752.6</ele>
        <time>1970-01-01T00:32:21.000Z</time>
      </trkpt>
      <trkpt lat="42.76716" lon="0.60698">
        <ele>750.8</ele>
        <time>1970-01-01T00:32:23.000Z</time>
      </trkpt>
      <trkpt lat="42.7672" lon="0.60692">
        <ele>750.1</ele>
        <time>1970-01-01T00:32:24.000Z</time>
      </trkpt>
      <trkpt lat="42.76731" lon="0.60678">
        <ele>748.4</ele>
        <time>1970-01-01T00:32:26.000Z</time>
      </trkpt>
      <trkpt lat="42.76742" lon="0.60663">
        <ele>746.3</ele>
        <time>1970-01-01T00:32:28.000Z</time>
      </trkpt>
      <trkpt lat="42.76749" lon="0.60654">
        <ele>745.1</ele>
        <time>1970-01-01T00:32:29.000Z</time>
      </trkpt>
      <trkpt lat="42.76756" lon="0.60644">
        <ele>743.8</ele>
        <time>1970-01-01T00:32:30.000Z</time>
      </trkpt>
      <trkpt lat="42.76764" lon="0.60634">
        <ele>742.5</ele>
        <time>1970-01-01T00:32:31.000Z</time>
      </trkpt>
      <trkpt lat="42.76771" lon="0.60623">
        <ele>741.1</ele>
        <time>1970-01-01T00:32:32.000Z</time>
      </trkpt>
      <trkpt lat="42.7678" lon="0.60612">
        <ele>739.7</ele>
        <time>1970-01-01T00:32:33.000Z</time>
      </trkpt>
      <trkpt lat="42.76788" lon="0.60601">
        <ele>738.4</ele>
        <time>1970-01-01T00:32:34.000Z</time>
      </trkpt>
      <trkpt lat="42.76798" lon="0.6059">
        <ele>736.9</ele>
        <time>1970-01-01T00:32:35.000Z</time>
      </trkpt>
      <trkpt lat="42.76821" lon="0.60569">
        <ele>733.9</ele>
        <time>1970-01-01T00:32:37.000Z</time>
      </trkpt>
      <trkpt lat="42.76833" lon="0.6056">
        <ele>732.3</ele>
        <time>1970-01-01T00:32:38.000Z</time>
      </trkpt>
      <trkpt lat="42.76847" lon="0.60554">
        <ele>730.3</ele>
        <time>1970-01-01T00:32:39.000Z</time>
      </trkpt>
      <trkpt lat="42.76862" lon="0.60551">
        <ele>728.1</ele>
        <time>1970-01-01T00:32:40.000Z</time>
      </trkpt>
      <trkpt lat="42.76893" lon="0.6055">
        <ele>723.8</ele>
        <time>1970-01-01T00:32:42.000Z</time>
      </trkpt>
      <trkpt lat="42.76925" lon="0.60542">
        <ele>719.9</ele>
        <time>1970-01-01T00:32:44.000Z</time>
      </trkpt>
      <trkpt lat="42.76939" lon="0.60533">
        <ele>718.5</ele>
        <time>1970-01-01T00:32:45.000Z</time>
      </trkpt>
      <trkpt lat="42.76951" lon="0.60518">
        <ele>717.3</ele>
        <time>1970-01-01T00:32:46.000Z</time>
      </trkpt>
      <trkpt lat="42.76959" lon="0.605">
        <ele>716.1</ele>
        <time>1970-01-01T00:32:47.000Z</time>
      </trkpt>
      <trkpt lat="42.76967" lon="0.60457">
        <ele>713.4</ele>
        <time>1970-01-01T00:32:49.000Z</time>
      </trkpt>
      <trkpt lat="42.76971" lon="0.60435">
        <ele>712</ele>
        <time>1970-01-01T00:32:50.000Z</time>
      </trkpt>
      <trkpt lat="42.76981" lon="0.60397">
        <ele>709.3</ele>
        <time>1970-01-01T00:32:52.000Z</time>
      </trkpt>
      <trkpt lat="42.77001" lon="0.60369">
        <ele>706.6</ele>
        <time>1970-01-01T00:32:54.000Z</time>
      </trkpt>
      <trkpt lat="42.77015" lon="0.60359">
        <ele>705.2</ele>
        <time>1970-01-01T00:32:55.000Z</time>
      </trkpt>
      <trkpt lat="42.7703" lon="0.60352">
        <ele>703.7</ele>
        <time>1970-01-01T00:32:56.000Z</time>
      </trkpt>
      <trkpt lat="42.77061" lon="0.60342">
        <ele>700.1</ele>
        <time>1970-01-01T00:32:58.000Z</time>
      </trkpt>
      <trkpt lat="42.77078" lon="0.60339">
        <ele>698.1</ele>
        <time>1970-01-01T00:32:59.000Z</time>
      </trkpt>
      <trkpt lat="42.77111" lon="0.60344">
        <ele>694.3</ele>
        <time>1970-01-01T00:33:01.000Z</time>
      </trkpt>
      <trkpt lat="42.77143" lon="0.60353">
        <ele>691.4</ele>
        <time>1970-01-01T00:33:03.000Z</time>
      </trkpt>
      <trkpt lat="42.77159" lon="0.60357">
        <ele>690.1</ele>
        <time>1970-01-01T00:33:04.000Z</time>
      </trkpt>
      <trkpt lat="42.77188" lon="0.60356">
        <ele>688</ele>
        <time>1970-01-01T00:33:06.000Z</time>
      </trkpt>
      <trkpt lat="42.77202" lon="0.60352">
        <ele>686.6</ele>
        <time>1970-01-01T00:33:07.000Z</time>
      </trkpt>
      <trkpt lat="42.77217" lon="0.60348">
        <ele>685.8</ele>
        <time>1970-01-01T00:33:08.000Z</time>
      </trkpt>
      <trkpt lat="42.77231" lon="0.60343">
        <ele>684.9</ele>
        <time>1970-01-01T00:33:09.000Z</time>
      </trkpt>
      <trkpt lat="42.77245" lon="0.60338">
        <ele>683.8</ele>
        <time>1970-01-01T00:33:10.000Z</time>
      </trkpt>
      <trkpt lat="42.77259" lon="0.60331">
        <ele>682.4</ele>
        <time>1970-01-01T00:33:11.000Z</time>
      </trkpt>
      <trkpt lat="42.77286" lon="0.60313">
        <ele>679.6</ele>
        <time>1970-01-01T00:33:13.000Z</time>
      </trkpt>
      <trkpt lat="42.773" lon="0.60302">
        <ele>678.3</ele>
        <time>1970-01-01T00:33:14.000Z</time>
      </trkpt>
      <trkpt lat="42.77327" lon="0.60277">
        <ele>675.5</ele>
        <time>1970-01-01T00:33:16.000Z</time>
      </trkpt>
      <trkpt lat="42.7734" lon="0.60264">
        <ele>674.1</ele>
        <time>1970-01-01T00:33:17.000Z</time>
      </trkpt>
      <trkpt lat="42.77367" lon="0.60237">
        <ele>671.2</ele>
        <time>1970-01-01T00:33:19.000Z</time>
      </trkpt>
      <trkpt lat="42.7738" lon="0.60223">
        <ele>669.7</ele>
        <time>1970-01-01T00:33:20.000Z</time>
      </trkpt>
      <trkpt lat="42.77407" lon="0.60198">
        <ele>666.4</ele>
        <time>1970-01-01T00:33:22.000Z</time>
      </trkpt>
      <trkpt lat="42.77422" lon="0.60187">
        <ele>665</ele>
        <time>1970-01-01T00:33:23.000Z</time>
      </trkpt>
      <trkpt lat="42.77453" lon="0.6017">
        <ele>662.9</ele>
        <time>1970-01-01T00:33:25.000Z</time>
      </trkpt>
      <trkpt lat="42.77468" lon="0.60163">
        <ele>662</ele>
        <time>1970-01-01T00:33:26.000Z</time>
      </trkpt>
      <trkpt lat="42.77498" lon="0.6015">
        <ele>660.6</ele>
        <time>1970-01-01T00:33:28.000Z</time>
      </trkpt>
      <trkpt lat="42.77511" lon="0.60143">
        <ele>660.1</ele>
        <time>1970-01-01T00:33:29.000Z</time>
      </trkpt>
      <trkpt lat="42.77535" lon="0.60123">
        <ele>659.2</ele>
        <time>1970-01-01T00:33:31.000Z</time>
      </trkpt>
      <trkpt lat="42.77546" lon="0.6011">
        <ele>658.9</ele>
        <time>1970-01-01T00:33:32.000Z</time>
      </trkpt>
      <trkpt lat="42.77556" lon="0.60097">
        <ele>658.6</ele>
        <time>1970-01-01T00:33:33.000Z</time>
      </trkpt>
      <trkpt lat="42.77576" lon="0.60076">
        <ele>658.1</ele>
        <time>1970-01-01T00:33:35.000Z</time>
      </trkpt>
      <trkpt lat="42.77587" lon="0.60069">
        <ele>657.9</ele>
        <time>1970-01-01T00:33:36.000Z</time>
      </trkpt>
      <trkpt lat="42.7761" lon="0.60068">
        <ele>657.7</ele>
        <time>1970-01-01T00:33:38.000Z</time>
      </trkpt>
      <trkpt lat="42.77622" lon="0.60071">
        <ele>657.4</ele>
        <time>1970-01-01T00:33:39.000Z</time>
      </trkpt>
      <trkpt lat="42.77634" lon="0.60076">
        <ele>657.1</ele>
        <time>1970-01-01T00:33:40.000Z</time>
      </trkpt>
      <trkpt lat="42.77647" lon="0.60079">
        <ele>656.8</ele>
        <time>1970-01-01T00:33:41.000Z</time>
      </trkpt>
      <trkpt lat="42.77672" lon="0.60081">
        <ele>656.4</ele>
        <time>1970-01-01T00:33:43.000Z</time>
      </trkpt>
      <trkpt lat="42.77693" lon="0.6007">
        <ele>656.3</ele>
        <time>1970-01-01T00:33:45.000Z</time>
      </trkpt>
      <trkpt lat="42.77702" lon="0.60062">
        <ele>656.1</ele>
        <time>1970-01-01T00:33:46.000Z</time>
      </trkpt>
      <trkpt lat="42.77711" lon="0.60055">
        <ele>655.9</ele>
        <time>1970-01-01T00:33:47.000Z</time>
      </trkpt>
      <trkpt lat="42.77721" lon="0.60048">
        <ele>655.8</ele>
        <time>1970-01-01T00:33:48.000Z</time>
      </trkpt>
      <trkpt lat="42.7774" lon="0.60036">
        <ele>655.7</ele>
        <time>1970-01-01T00:33:50.000Z</time>
      </trkpt>
      <trkpt lat="42.77748" lon="0.60028">
        <ele>655.7</ele>
        <time>1970-01-01T00:33:51.000Z</time>
      </trkpt>
    </trkseg>
  </trk>
</gpx>